<?xml version="1.0" encoding="UTF-8" standalone="no" ?>
<gpx xmlns="http://www.topografix.com/GPX/1/1" xmlns:xsi="http://www.w3.org/2001/XMLSchema-instance" xsi:schemaLocation="http://www.topografix.com/GPX/1/1 http://www.topografix.com/GPX/1/1/gpx.xsd" version="1.1" creator="VisuGPX - https://www.visugpx.com">
  <metadata>
    <name>Pointe de Roumazet</name>
    <desc><![CDATA[Pointe de Roumazet avec Lucille au départ de Soulcem]]></desc>
  </metadata>
  <trk>
    <name><![CDATA[20180202162850-wLT9D]]></name>
    <trkseg>
      <trkpt lat="42.6498" lon="1.451">
        <ele>1734</ele>
        <time>2017-05-20T06:01:25.760Z</time>
      </trkpt>
      <trkpt lat="42.64973" lon="1.45089">
        <ele>1735</ele>
        <time>2017-05-20T06:01:35.760Z</time>
      </trkpt>
      <trkpt lat="42.64966" lon="1.45077">
        <ele>1727</ele>
        <time>2017-05-20T06:01:45.760Z</time>
      </trkpt>
      <trkpt lat="42.64958" lon="1.45066">
        <ele>1729</ele>
        <time>2017-05-20T06:01:54.760Z</time>
      </trkpt>
      <trkpt lat="42.64949" lon="1.4506">
        <ele>1731</ele>
        <time>2017-05-20T06:02:03.760Z</time>
      </trkpt>
      <trkpt lat="42.64941" lon="1.45052">
        <ele>1731</ele>
        <time>2017-05-20T06:02:12.760Z</time>
      </trkpt>
      <trkpt lat="42.64932" lon="1.45045">
        <ele>1732</ele>
        <time>2017-05-20T06:02:21.760Z</time>
      </trkpt>
      <trkpt lat="42.64922" lon="1.45036">
        <ele>1732</ele>
        <time>2017-05-20T06:02:31.760Z</time>
      </trkpt>
      <trkpt lat="42.64916" lon="1.45024">
        <ele>1742</ele>
        <time>2017-05-20T06:02:41.760Z</time>
      </trkpt>
      <trkpt lat="42.64908" lon="1.45015">
        <ele>1741</ele>
        <time>2017-05-20T06:02:50.760Z</time>
      </trkpt>
      <trkpt lat="42.64898" lon="1.45011">
        <ele>1742</ele>
        <time>2017-05-20T06:02:59.760Z</time>
      </trkpt>
      <trkpt lat="42.64887" lon="1.45011">
        <ele>1744</ele>
        <time>2017-05-20T06:03:06.760Z</time>
      </trkpt>
      <trkpt lat="42.64877" lon="1.45014">
        <ele>1746</ele>
        <time>2017-05-20T06:03:16.760Z</time>
      </trkpt>
      <trkpt lat="42.64866" lon="1.45012">
        <ele>1747</ele>
        <time>2017-05-20T06:03:26.760Z</time>
      </trkpt>
      <trkpt lat="42.64856" lon="1.4501">
        <ele>1747</ele>
        <time>2017-05-20T06:03:35.760Z</time>
      </trkpt>
      <trkpt lat="42.64845" lon="1.45009">
        <ele>1747</ele>
        <time>2017-05-20T06:03:45.760Z</time>
      </trkpt>
      <trkpt lat="42.64835" lon="1.45004">
        <ele>1747</ele>
        <time>2017-05-20T06:03:54.760Z</time>
      </trkpt>
      <trkpt lat="42.64825" lon="1.44999">
        <ele>1749</ele>
        <time>2017-05-20T06:04:01.760Z</time>
      </trkpt>
      <trkpt lat="42.64816" lon="1.4499">
        <ele>1753</ele>
        <time>2017-05-20T06:04:12.760Z</time>
      </trkpt>
      <trkpt lat="42.64806" lon="1.44982">
        <ele>1755</ele>
        <time>2017-05-20T06:04:19.760Z</time>
      </trkpt>
      <trkpt lat="42.64798" lon="1.44973">
        <ele>1757</ele>
        <time>2017-05-20T06:04:26.760Z</time>
      </trkpt>
      <trkpt lat="42.64789" lon="1.44968">
        <ele>1758</ele>
        <time>2017-05-20T06:04:32.760Z</time>
      </trkpt>
      <trkpt lat="42.64793" lon="1.44978">
        <ele>1757</ele>
        <time>2017-05-20T06:04:44.760Z</time>
      </trkpt>
      <trkpt lat="42.64798" lon="1.4499">
        <ele>1756</ele>
        <time>2017-05-20T06:04:51.760Z</time>
      </trkpt>
      <trkpt lat="42.64805" lon="1.45">
        <ele>1755</ele>
        <time>2017-05-20T06:04:58.760Z</time>
      </trkpt>
      <trkpt lat="42.64812" lon="1.45006">
        <ele>1761</ele>
        <time>2017-05-20T06:05:03.760Z</time>
      </trkpt>
      <trkpt lat="42.6482" lon="1.45016">
        <ele>1761</ele>
        <time>2017-05-20T06:05:10.760Z</time>
      </trkpt>
      <trkpt lat="42.64826" lon="1.45027">
        <ele>1763</ele>
        <time>2017-05-20T06:05:20.760Z</time>
      </trkpt>
      <trkpt lat="42.64834" lon="1.45037">
        <ele>1751</ele>
        <time>2017-05-20T06:05:30.760Z</time>
      </trkpt>
      <trkpt lat="42.64842" lon="1.45045">
        <ele>1752</ele>
        <time>2017-05-20T06:05:39.760Z</time>
      </trkpt>
      <trkpt lat="42.64832" lon="1.45045">
        <ele>1768</ele>
        <time>2017-05-20T06:06:04.760Z</time>
      </trkpt>
      <trkpt lat="42.64823" lon="1.45037">
        <ele>1767</ele>
        <time>2017-05-20T06:06:12.760Z</time>
      </trkpt>
      <trkpt lat="42.64812" lon="1.45034">
        <ele>1768</ele>
        <time>2017-05-20T06:06:20.760Z</time>
      </trkpt>
      <trkpt lat="42.64802" lon="1.45029">
        <ele>1769</ele>
        <time>2017-05-20T06:06:27.760Z</time>
      </trkpt>
      <trkpt lat="42.64792" lon="1.45026">
        <ele>1770</ele>
        <time>2017-05-20T06:06:34.760Z</time>
      </trkpt>
      <trkpt lat="42.64787" lon="1.45013">
        <ele>1769</ele>
        <time>2017-05-20T06:06:46.760Z</time>
      </trkpt>
      <trkpt lat="42.64778" lon="1.45007">
        <ele>1770</ele>
        <time>2017-05-20T06:06:51.760Z</time>
      </trkpt>
      <trkpt lat="42.64768" lon="1.45001">
        <ele>1770</ele>
        <time>2017-05-20T06:06:59.760Z</time>
      </trkpt>
      <trkpt lat="42.64768" lon="1.44986">
        <ele>1761</ele>
        <time>2017-05-20T06:07:09.760Z</time>
      </trkpt>
      <trkpt lat="42.64762" lon="1.44976">
        <ele>1761</ele>
        <time>2017-05-20T06:07:17.760Z</time>
      </trkpt>
      <trkpt lat="42.64751" lon="1.44968">
        <ele>1761</ele>
        <time>2017-05-20T06:07:24.760Z</time>
      </trkpt>
      <trkpt lat="42.64741" lon="1.44961">
        <ele>1772</ele>
        <time>2017-05-20T06:07:33.760Z</time>
      </trkpt>
      <trkpt lat="42.64731" lon="1.44956">
        <ele>1772</ele>
        <time>2017-05-20T06:07:46.760Z</time>
      </trkpt>
      <trkpt lat="42.64722" lon="1.44952">
        <ele>1773</ele>
        <time>2017-05-20T06:07:52.760Z</time>
      </trkpt>
      <trkpt lat="42.64712" lon="1.44944">
        <ele>1773</ele>
        <time>2017-05-20T06:08:03.760Z</time>
      </trkpt>
      <trkpt lat="42.64702" lon="1.4494">
        <ele>1774</ele>
        <time>2017-05-20T06:08:08.760Z</time>
      </trkpt>
      <trkpt lat="42.6469" lon="1.44934">
        <ele>1775</ele>
        <time>2017-05-20T06:08:15.760Z</time>
      </trkpt>
      <trkpt lat="42.64682" lon="1.44925">
        <ele>1774</ele>
        <time>2017-05-20T06:08:25.760Z</time>
      </trkpt>
      <trkpt lat="42.64663" lon="1.44935">
        <ele>1785</ele>
        <time>2017-05-20T06:08:48.760Z</time>
      </trkpt>
      <trkpt lat="42.64675" lon="1.44947">
        <ele>1777</ele>
        <time>2017-05-20T06:08:56.760Z</time>
      </trkpt>
      <trkpt lat="42.64689" lon="1.44963">
        <ele>1779</ele>
        <time>2017-05-20T06:09:09.760Z</time>
      </trkpt>
      <trkpt lat="42.64697" lon="1.44973">
        <ele>1779</ele>
        <time>2017-05-20T06:09:18.760Z</time>
      </trkpt>
      <trkpt lat="42.64705" lon="1.4498">
        <ele>1778</ele>
        <time>2017-05-20T06:09:26.760Z</time>
      </trkpt>
      <trkpt lat="42.64712" lon="1.44986">
        <ele>1777</ele>
        <time>2017-05-20T06:09:32.760Z</time>
      </trkpt>
      <trkpt lat="42.64719" lon="1.44996">
        <ele>1776</ele>
        <time>2017-05-20T06:09:43.760Z</time>
      </trkpt>
      <trkpt lat="42.64715" lon="1.45009">
        <ele>1796</ele>
        <time>2017-05-20T06:09:55.760Z</time>
      </trkpt>
      <trkpt lat="42.64708" lon="1.45">
        <ele>1779</ele>
        <time>2017-05-20T06:10:06.760Z</time>
      </trkpt>
      <trkpt lat="42.64698" lon="1.44995">
        <ele>1782</ele>
        <time>2017-05-20T06:10:15.760Z</time>
      </trkpt>
      <trkpt lat="42.64688" lon="1.44989">
        <ele>1785</ele>
        <time>2017-05-20T06:10:23.760Z</time>
      </trkpt>
      <trkpt lat="42.64681" lon="1.44979">
        <ele>1784</ele>
        <time>2017-05-20T06:10:32.760Z</time>
      </trkpt>
      <trkpt lat="42.6467" lon="1.44976">
        <ele>1785</ele>
        <time>2017-05-20T06:10:39.760Z</time>
      </trkpt>
      <trkpt lat="42.6466" lon="1.44973">
        <ele>1796</ele>
        <time>2017-05-20T06:10:45.760Z</time>
      </trkpt>
      <trkpt lat="42.6465" lon="1.44971">
        <ele>1797</ele>
        <time>2017-05-20T06:10:51.760Z</time>
      </trkpt>
      <trkpt lat="42.6464" lon="1.44966">
        <ele>1796</ele>
        <time>2017-05-20T06:11:00.760Z</time>
      </trkpt>
      <trkpt lat="42.64629" lon="1.44963">
        <ele>1797</ele>
        <time>2017-05-20T06:11:08.760Z</time>
      </trkpt>
      <trkpt lat="42.64618" lon="1.44965">
        <ele>1799</ele>
        <time>2017-05-20T06:11:17.760Z</time>
      </trkpt>
      <trkpt lat="42.64607" lon="1.44965">
        <ele>1800</ele>
        <time>2017-05-20T06:11:25.760Z</time>
      </trkpt>
      <trkpt lat="42.64597" lon="1.44961">
        <ele>1800</ele>
        <time>2017-05-20T06:11:32.760Z</time>
      </trkpt>
      <trkpt lat="42.64586" lon="1.44959">
        <ele>1800</ele>
        <time>2017-05-20T06:11:40.760Z</time>
      </trkpt>
      <trkpt lat="42.64575" lon="1.44957">
        <ele>1811</ele>
        <time>2017-05-20T06:11:48.760Z</time>
      </trkpt>
      <trkpt lat="42.64565" lon="1.44955">
        <ele>1811</ele>
        <time>2017-05-20T06:11:56.760Z</time>
      </trkpt>
      <trkpt lat="42.64555" lon="1.44954">
        <ele>1812</ele>
        <time>2017-05-20T06:12:11.760Z</time>
      </trkpt>
      <trkpt lat="42.64545" lon="1.44954">
        <ele>1813</ele>
        <time>2017-05-20T06:12:17.760Z</time>
      </trkpt>
      <trkpt lat="42.64534" lon="1.44952">
        <ele>1814</ele>
        <time>2017-05-20T06:12:24.760Z</time>
      </trkpt>
      <trkpt lat="42.64525" lon="1.44946">
        <ele>1813</ele>
        <time>2017-05-20T06:12:38.760Z</time>
      </trkpt>
      <trkpt lat="42.64513" lon="1.44941">
        <ele>1813</ele>
        <time>2017-05-20T06:12:46.760Z</time>
      </trkpt>
      <trkpt lat="42.64504" lon="1.44939">
        <ele>1813</ele>
        <time>2017-05-20T06:12:53.760Z</time>
      </trkpt>
      <trkpt lat="42.64489" lon="1.44935">
        <ele>1817</ele>
        <time>2017-05-20T06:13:06.760Z</time>
      </trkpt>
      <trkpt lat="42.64479" lon="1.44938">
        <ele>1818</ele>
        <time>2017-05-20T06:13:17.760Z</time>
      </trkpt>
      <trkpt lat="42.64469" lon="1.44936">
        <ele>1818</ele>
        <time>2017-05-20T06:13:32.760Z</time>
      </trkpt>
      <trkpt lat="42.64459" lon="1.44938">
        <ele>1819</ele>
        <time>2017-05-20T06:13:40.760Z</time>
      </trkpt>
      <trkpt lat="42.64449" lon="1.44934">
        <ele>1819</ele>
        <time>2017-05-20T06:13:54.760Z</time>
      </trkpt>
      <trkpt lat="42.64464" lon="1.44929">
        <ele>1818</ele>
        <time>2017-05-20T06:14:00.760Z</time>
      </trkpt>
      <trkpt lat="42.64467" lon="1.4493">
        <ele>1818</ele>
        <time>2017-05-20T06:14:07.760Z</time>
      </trkpt>
      <trkpt lat="42.64459" lon="1.44935">
        <ele>1819</ele>
        <time>2017-05-20T06:14:15.760Z</time>
      </trkpt>
      <trkpt lat="42.64453" lon="1.44948">
        <ele>1820</ele>
        <time>2017-05-20T06:14:24.760Z</time>
      </trkpt>
      <trkpt lat="42.64442" lon="1.44948">
        <ele>1820</ele>
        <time>2017-05-20T06:14:32.760Z</time>
      </trkpt>
      <trkpt lat="42.64431" lon="1.44953">
        <ele>1820</ele>
        <time>2017-05-20T06:14:41.760Z</time>
      </trkpt>
      <trkpt lat="42.64421" lon="1.44953">
        <ele>1820</ele>
        <time>2017-05-20T06:14:53.760Z</time>
      </trkpt>
      <trkpt lat="42.64412" lon="1.44956">
        <ele>1819</ele>
        <time>2017-05-20T06:14:59.760Z</time>
      </trkpt>
      <trkpt lat="42.64403" lon="1.4496">
        <ele>1819</ele>
        <time>2017-05-20T06:15:07.760Z</time>
      </trkpt>
      <trkpt lat="42.64393" lon="1.44966">
        <ele>1820</ele>
        <time>2017-05-20T06:15:15.760Z</time>
      </trkpt>
      <trkpt lat="42.64386" lon="1.44976">
        <ele>1820</ele>
        <time>2017-05-20T06:15:23.760Z</time>
      </trkpt>
      <trkpt lat="42.64376" lon="1.44984">
        <ele>1820</ele>
        <time>2017-05-20T06:15:31.760Z</time>
      </trkpt>
      <trkpt lat="42.64367" lon="1.44993">
        <ele>1820</ele>
        <time>2017-05-20T06:15:41.760Z</time>
      </trkpt>
      <trkpt lat="42.64353" lon="1.44999">
        <ele>1819</ele>
        <time>2017-05-20T06:15:52.760Z</time>
      </trkpt>
      <trkpt lat="42.64339" lon="1.45006">
        <ele>1826</ele>
        <time>2017-05-20T06:16:03.760Z</time>
      </trkpt>
      <trkpt lat="42.6433" lon="1.45012">
        <ele>1824</ele>
        <time>2017-05-20T06:16:11.760Z</time>
      </trkpt>
      <trkpt lat="42.64322" lon="1.45018">
        <ele>1826</ele>
        <time>2017-05-20T06:16:19.760Z</time>
      </trkpt>
      <trkpt lat="42.64311" lon="1.45022">
        <ele>1827</ele>
        <time>2017-05-20T06:16:27.760Z</time>
      </trkpt>
      <trkpt lat="42.64301" lon="1.45027">
        <ele>1828</ele>
        <time>2017-05-20T06:16:37.760Z</time>
      </trkpt>
      <trkpt lat="42.64291" lon="1.45029">
        <ele>1828</ele>
        <time>2017-05-20T06:16:44.760Z</time>
      </trkpt>
      <trkpt lat="42.64281" lon="1.45033">
        <ele>1828</ele>
        <time>2017-05-20T06:16:52.760Z</time>
      </trkpt>
      <trkpt lat="42.6427" lon="1.45036">
        <ele>1828</ele>
        <time>2017-05-20T06:17:00.760Z</time>
      </trkpt>
      <trkpt lat="42.64261" lon="1.45042">
        <ele>1828</ele>
        <time>2017-05-20T06:17:08.760Z</time>
      </trkpt>
      <trkpt lat="42.64253" lon="1.45049">
        <ele>1828</ele>
        <time>2017-05-20T06:17:15.760Z</time>
      </trkpt>
      <trkpt lat="42.64244" lon="1.45058">
        <ele>1824</ele>
        <time>2017-05-20T06:17:24.760Z</time>
      </trkpt>
      <trkpt lat="42.64234" lon="1.45064">
        <ele>1824</ele>
        <time>2017-05-20T06:17:32.760Z</time>
      </trkpt>
      <trkpt lat="42.64228" lon="1.45068">
        <ele>1824</ele>
        <time>2017-05-20T06:17:37.760Z</time>
      </trkpt>
      <trkpt lat="42.64222" lon="1.45073">
        <ele>1824</ele>
        <time>2017-05-20T06:17:44.760Z</time>
      </trkpt>
      <trkpt lat="42.64212" lon="1.45075">
        <ele>1823</ele>
        <time>2017-05-20T06:17:52.760Z</time>
      </trkpt>
      <trkpt lat="42.64202" lon="1.45079">
        <ele>1823</ele>
        <time>2017-05-20T06:17:59.760Z</time>
      </trkpt>
      <trkpt lat="42.64192" lon="1.45084">
        <ele>1837</ele>
        <time>2017-05-20T06:18:07.760Z</time>
      </trkpt>
      <trkpt lat="42.64182" lon="1.45085">
        <ele>1834</ele>
        <time>2017-05-20T06:18:15.760Z</time>
      </trkpt>
      <trkpt lat="42.64172" lon="1.45079">
        <ele>1823</ele>
        <time>2017-05-20T06:18:23.760Z</time>
      </trkpt>
      <trkpt lat="42.64162" lon="1.45074">
        <ele>1823</ele>
        <time>2017-05-20T06:18:29.760Z</time>
      </trkpt>
      <trkpt lat="42.64153" lon="1.45071">
        <ele>1822</ele>
        <time>2017-05-20T06:18:36.760Z</time>
      </trkpt>
      <trkpt lat="42.64143" lon="1.45072">
        <ele>1822</ele>
        <time>2017-05-20T06:18:43.760Z</time>
      </trkpt>
      <trkpt lat="42.64133" lon="1.45076">
        <ele>1822</ele>
        <time>2017-05-20T06:18:50.760Z</time>
      </trkpt>
      <trkpt lat="42.64124" lon="1.45082">
        <ele>1822</ele>
        <time>2017-05-20T06:18:57.760Z</time>
      </trkpt>
      <trkpt lat="42.64119" lon="1.45086">
        <ele>1837</ele>
        <time>2017-05-20T06:19:02.760Z</time>
      </trkpt>
      <trkpt lat="42.64104" lon="1.45088">
        <ele>1836</ele>
        <time>2017-05-20T06:19:13.760Z</time>
      </trkpt>
      <trkpt lat="42.64096" lon="1.45089">
        <ele>1834</ele>
        <time>2017-05-20T06:19:20.760Z</time>
      </trkpt>
      <trkpt lat="42.64087" lon="1.45089">
        <ele>1832</ele>
        <time>2017-05-20T06:19:27.760Z</time>
      </trkpt>
      <trkpt lat="42.64076" lon="1.45089">
        <ele>1833</ele>
        <time>2017-05-20T06:19:35.760Z</time>
      </trkpt>
      <trkpt lat="42.64062" lon="1.45084">
        <ele>1836</ele>
        <time>2017-05-20T06:19:46.760Z</time>
      </trkpt>
      <trkpt lat="42.64054" lon="1.45079">
        <ele>1824</ele>
        <time>2017-05-20T06:19:52.760Z</time>
      </trkpt>
      <trkpt lat="42.64045" lon="1.45077">
        <ele>1823</ele>
        <time>2017-05-20T06:19:59.760Z</time>
      </trkpt>
      <trkpt lat="42.64036" lon="1.45078">
        <ele>1824</ele>
        <time>2017-05-20T06:20:05.760Z</time>
      </trkpt>
      <trkpt lat="42.64028" lon="1.45079">
        <ele>1824</ele>
        <time>2017-05-20T06:20:10.760Z</time>
      </trkpt>
      <trkpt lat="42.64021" lon="1.45081">
        <ele>1825</ele>
        <time>2017-05-20T06:20:16.760Z</time>
      </trkpt>
      <trkpt lat="42.64013" lon="1.45082">
        <ele>1826</ele>
        <time>2017-05-20T06:20:22.760Z</time>
      </trkpt>
      <trkpt lat="42.64005" lon="1.45084">
        <ele>1832</ele>
        <time>2017-05-20T06:20:28.760Z</time>
      </trkpt>
      <trkpt lat="42.63995" lon="1.45087">
        <ele>1832</ele>
        <time>2017-05-20T06:20:35.760Z</time>
      </trkpt>
      <trkpt lat="42.63985" lon="1.45091">
        <ele>1836</ele>
        <time>2017-05-20T06:20:43.760Z</time>
      </trkpt>
      <trkpt lat="42.63975" lon="1.45094">
        <ele>1837</ele>
        <time>2017-05-20T06:20:51.760Z</time>
      </trkpt>
      <trkpt lat="42.63967" lon="1.45095">
        <ele>1838</ele>
        <time>2017-05-20T06:20:57.760Z</time>
      </trkpt>
      <trkpt lat="42.63957" lon="1.45096">
        <ele>1839</ele>
        <time>2017-05-20T06:21:04.760Z</time>
      </trkpt>
      <trkpt lat="42.63946" lon="1.45095">
        <ele>1838</ele>
        <time>2017-05-20T06:21:12.760Z</time>
      </trkpt>
      <trkpt lat="42.63938" lon="1.45095">
        <ele>1837</ele>
        <time>2017-05-20T06:21:18.760Z</time>
      </trkpt>
      <trkpt lat="42.63928" lon="1.45097">
        <ele>1836</ele>
        <time>2017-05-20T06:21:25.760Z</time>
      </trkpt>
      <trkpt lat="42.63918" lon="1.451">
        <ele>1835</ele>
        <time>2017-05-20T06:21:33.760Z</time>
      </trkpt>
      <trkpt lat="42.63912" lon="1.45101">
        <ele>1836</ele>
        <time>2017-05-20T06:21:38.760Z</time>
      </trkpt>
      <trkpt lat="42.63905" lon="1.45107">
        <ele>1838</ele>
        <time>2017-05-20T06:21:44.760Z</time>
      </trkpt>
      <trkpt lat="42.639" lon="1.45113">
        <ele>1839</ele>
        <time>2017-05-20T06:21:49.760Z</time>
      </trkpt>
      <trkpt lat="42.63892" lon="1.45121">
        <ele>1841</ele>
        <time>2017-05-20T06:21:57.760Z</time>
      </trkpt>
      <trkpt lat="42.63886" lon="1.45127">
        <ele>1842</ele>
        <time>2017-05-20T06:22:03.760Z</time>
      </trkpt>
      <trkpt lat="42.63878" lon="1.4513">
        <ele>1843</ele>
        <time>2017-05-20T06:22:10.760Z</time>
      </trkpt>
      <trkpt lat="42.63868" lon="1.45132">
        <ele>1843</ele>
        <time>2017-05-20T06:22:17.760Z</time>
      </trkpt>
      <trkpt lat="42.63861" lon="1.45131">
        <ele>1843</ele>
        <time>2017-05-20T06:22:22.760Z</time>
      </trkpt>
      <trkpt lat="42.63852" lon="1.45125">
        <ele>1842</ele>
        <time>2017-05-20T06:22:30.760Z</time>
      </trkpt>
      <trkpt lat="42.63842" lon="1.45118">
        <ele>1840</ele>
        <time>2017-05-20T06:22:40.760Z</time>
      </trkpt>
      <trkpt lat="42.63832" lon="1.45113">
        <ele>1840</ele>
        <time>2017-05-20T06:22:47.760Z</time>
      </trkpt>
      <trkpt lat="42.63818" lon="1.45112">
        <ele>1841</ele>
        <time>2017-05-20T06:22:57.760Z</time>
      </trkpt>
      <trkpt lat="42.63809" lon="1.45111">
        <ele>1841</ele>
        <time>2017-05-20T06:23:04.760Z</time>
      </trkpt>
      <trkpt lat="42.63794" lon="1.45108">
        <ele>1842</ele>
        <time>2017-05-20T06:23:15.760Z</time>
      </trkpt>
      <trkpt lat="42.63784" lon="1.45107">
        <ele>1842</ele>
        <time>2017-05-20T06:23:23.760Z</time>
      </trkpt>
      <trkpt lat="42.63772" lon="1.45106">
        <ele>1842</ele>
        <time>2017-05-20T06:23:31.760Z</time>
      </trkpt>
      <trkpt lat="42.63761" lon="1.45106">
        <ele>1841</ele>
        <time>2017-05-20T06:23:39.760Z</time>
      </trkpt>
      <trkpt lat="42.6375" lon="1.45108">
        <ele>1841</ele>
        <time>2017-05-20T06:23:47.760Z</time>
      </trkpt>
      <trkpt lat="42.63739" lon="1.4511">
        <ele>1847</ele>
        <time>2017-05-20T06:23:55.760Z</time>
      </trkpt>
      <trkpt lat="42.63728" lon="1.45112">
        <ele>1848</ele>
        <time>2017-05-20T06:24:04.760Z</time>
      </trkpt>
      <trkpt lat="42.63719" lon="1.45112">
        <ele>1849</ele>
        <time>2017-05-20T06:24:12.760Z</time>
      </trkpt>
      <trkpt lat="42.63707" lon="1.45113">
        <ele>1850</ele>
        <time>2017-05-20T06:24:20.760Z</time>
      </trkpt>
      <trkpt lat="42.63696" lon="1.45112">
        <ele>1850</ele>
        <time>2017-05-20T06:24:28.760Z</time>
      </trkpt>
      <trkpt lat="42.63686" lon="1.45113">
        <ele>1850</ele>
        <time>2017-05-20T06:24:36.760Z</time>
      </trkpt>
      <trkpt lat="42.63676" lon="1.45115">
        <ele>1851</ele>
        <time>2017-05-20T06:24:43.760Z</time>
      </trkpt>
      <trkpt lat="42.63665" lon="1.45116">
        <ele>1854</ele>
        <time>2017-05-20T06:24:51.760Z</time>
      </trkpt>
      <trkpt lat="42.63652" lon="1.45117">
        <ele>1855</ele>
        <time>2017-05-20T06:25:00.760Z</time>
      </trkpt>
      <trkpt lat="42.63643" lon="1.45119">
        <ele>1856</ele>
        <time>2017-05-20T06:25:07.760Z</time>
      </trkpt>
      <trkpt lat="42.63632" lon="1.45121">
        <ele>1857</ele>
        <time>2017-05-20T06:25:16.760Z</time>
      </trkpt>
      <trkpt lat="42.63626" lon="1.45121">
        <ele>1857</ele>
        <time>2017-05-20T06:25:21.760Z</time>
      </trkpt>
      <trkpt lat="42.63615" lon="1.4512">
        <ele>1857</ele>
        <time>2017-05-20T06:25:29.760Z</time>
      </trkpt>
      <trkpt lat="42.63605" lon="1.4512">
        <ele>1857</ele>
        <time>2017-05-20T06:25:37.760Z</time>
      </trkpt>
      <trkpt lat="42.63594" lon="1.45119">
        <ele>1856</ele>
        <time>2017-05-20T06:25:45.760Z</time>
      </trkpt>
      <trkpt lat="42.63584" lon="1.45119">
        <ele>1856</ele>
        <time>2017-05-20T06:25:53.760Z</time>
      </trkpt>
      <trkpt lat="42.63574" lon="1.45119">
        <ele>1859</ele>
        <time>2017-05-20T06:26:00.760Z</time>
      </trkpt>
      <trkpt lat="42.63564" lon="1.45116">
        <ele>1859</ele>
        <time>2017-05-20T06:26:08.760Z</time>
      </trkpt>
      <trkpt lat="42.63553" lon="1.45113">
        <ele>1859</ele>
        <time>2017-05-20T06:26:16.760Z</time>
      </trkpt>
      <trkpt lat="42.63542" lon="1.45112">
        <ele>1860</ele>
        <time>2017-05-20T06:26:24.760Z</time>
      </trkpt>
      <trkpt lat="42.6353" lon="1.45111">
        <ele>1860</ele>
        <time>2017-05-20T06:26:32.760Z</time>
      </trkpt>
      <trkpt lat="42.63518" lon="1.45112">
        <ele>1860</ele>
        <time>2017-05-20T06:26:41.760Z</time>
      </trkpt>
      <trkpt lat="42.63508" lon="1.45112">
        <ele>1860</ele>
        <time>2017-05-20T06:26:49.760Z</time>
      </trkpt>
      <trkpt lat="42.63498" lon="1.45111">
        <ele>1860</ele>
        <time>2017-05-20T06:26:56.760Z</time>
      </trkpt>
      <trkpt lat="42.63485" lon="1.45112">
        <ele>1861</ele>
        <time>2017-05-20T06:27:05.760Z</time>
      </trkpt>
      <trkpt lat="42.63475" lon="1.45114">
        <ele>1861</ele>
        <time>2017-05-20T06:27:13.760Z</time>
      </trkpt>
      <trkpt lat="42.63465" lon="1.45118">
        <ele>1862</ele>
        <time>2017-05-20T06:27:21.760Z</time>
      </trkpt>
      <trkpt lat="42.63455" lon="1.45121">
        <ele>1863</ele>
        <time>2017-05-20T06:27:29.760Z</time>
      </trkpt>
      <trkpt lat="42.6345" lon="1.45125">
        <ele>1863</ele>
        <time>2017-05-20T06:27:34.760Z</time>
      </trkpt>
      <trkpt lat="42.63439" lon="1.45128">
        <ele>1864</ele>
        <time>2017-05-20T06:27:42.760Z</time>
      </trkpt>
      <trkpt lat="42.63429" lon="1.45131">
        <ele>1864</ele>
        <time>2017-05-20T06:27:50.760Z</time>
      </trkpt>
      <trkpt lat="42.63418" lon="1.45135">
        <ele>1865</ele>
        <time>2017-05-20T06:27:58.760Z</time>
      </trkpt>
      <trkpt lat="42.6341" lon="1.45137">
        <ele>1863</ele>
        <time>2017-05-20T06:28:04.760Z</time>
      </trkpt>
      <trkpt lat="42.63396" lon="1.4514">
        <ele>1863</ele>
        <time>2017-05-20T06:28:13.760Z</time>
      </trkpt>
      <trkpt lat="42.63385" lon="1.45143">
        <ele>1863</ele>
        <time>2017-05-20T06:28:22.760Z</time>
      </trkpt>
      <trkpt lat="42.63372" lon="1.45144">
        <ele>1863</ele>
        <time>2017-05-20T06:28:32.760Z</time>
      </trkpt>
      <trkpt lat="42.63362" lon="1.45142">
        <ele>1863</ele>
        <time>2017-05-20T06:28:40.760Z</time>
      </trkpt>
      <trkpt lat="42.63351" lon="1.45139">
        <ele>1862</ele>
        <time>2017-05-20T06:28:48.760Z</time>
      </trkpt>
      <trkpt lat="42.6334" lon="1.45135">
        <ele>1862</ele>
        <time>2017-05-20T06:28:56.760Z</time>
      </trkpt>
      <trkpt lat="42.6333" lon="1.45133">
        <ele>1863</ele>
        <time>2017-05-20T06:29:04.760Z</time>
      </trkpt>
      <trkpt lat="42.6332" lon="1.45131">
        <ele>1862</ele>
        <time>2017-05-20T06:29:12.760Z</time>
      </trkpt>
      <trkpt lat="42.6331" lon="1.45129">
        <ele>1862</ele>
        <time>2017-05-20T06:29:19.760Z</time>
      </trkpt>
      <trkpt lat="42.633" lon="1.45131">
        <ele>1863</ele>
        <time>2017-05-20T06:29:27.760Z</time>
      </trkpt>
      <trkpt lat="42.63288" lon="1.45134">
        <ele>1864</ele>
        <time>2017-05-20T06:29:35.760Z</time>
      </trkpt>
      <trkpt lat="42.63278" lon="1.45137">
        <ele>1865</ele>
        <time>2017-05-20T06:29:43.760Z</time>
      </trkpt>
      <trkpt lat="42.63268" lon="1.45138">
        <ele>1866</ele>
        <time>2017-05-20T06:29:51.760Z</time>
      </trkpt>
      <trkpt lat="42.63257" lon="1.45138">
        <ele>1867</ele>
        <time>2017-05-20T06:29:59.760Z</time>
      </trkpt>
      <trkpt lat="42.63247" lon="1.4514">
        <ele>1874</ele>
        <time>2017-05-20T06:30:07.760Z</time>
      </trkpt>
      <trkpt lat="42.63237" lon="1.45141">
        <ele>1875</ele>
        <time>2017-05-20T06:30:14.760Z</time>
      </trkpt>
      <trkpt lat="42.63226" lon="1.45139">
        <ele>1875</ele>
        <time>2017-05-20T06:30:23.760Z</time>
      </trkpt>
      <trkpt lat="42.63216" lon="1.45134">
        <ele>1874</ele>
        <time>2017-05-20T06:30:31.760Z</time>
      </trkpt>
      <trkpt lat="42.63208" lon="1.45126">
        <ele>1873</ele>
        <time>2017-05-20T06:30:39.760Z</time>
      </trkpt>
      <trkpt lat="42.63198" lon="1.45119">
        <ele>1872</ele>
        <time>2017-05-20T06:30:47.760Z</time>
      </trkpt>
      <trkpt lat="42.63188" lon="1.45114">
        <ele>1872</ele>
        <time>2017-05-20T06:30:55.760Z</time>
      </trkpt>
      <trkpt lat="42.63178" lon="1.45111">
        <ele>1871</ele>
        <time>2017-05-20T06:31:02.760Z</time>
      </trkpt>
      <trkpt lat="42.63167" lon="1.45112">
        <ele>1872</ele>
        <time>2017-05-20T06:31:10.760Z</time>
      </trkpt>
      <trkpt lat="42.63157" lon="1.45115">
        <ele>1877</ele>
        <time>2017-05-20T06:31:17.760Z</time>
      </trkpt>
      <trkpt lat="42.63147" lon="1.4512">
        <ele>1879</ele>
        <time>2017-05-20T06:31:25.760Z</time>
      </trkpt>
      <trkpt lat="42.63136" lon="1.45123">
        <ele>1880</ele>
        <time>2017-05-20T06:31:33.760Z</time>
      </trkpt>
      <trkpt lat="42.63126" lon="1.45124">
        <ele>1881</ele>
        <time>2017-05-20T06:31:41.760Z</time>
      </trkpt>
      <trkpt lat="42.63113" lon="1.45121">
        <ele>1880</ele>
        <time>2017-05-20T06:31:50.760Z</time>
      </trkpt>
      <trkpt lat="42.63104" lon="1.45116">
        <ele>1879</ele>
        <time>2017-05-20T06:31:57.760Z</time>
      </trkpt>
      <trkpt lat="42.63094" lon="1.45108">
        <ele>1877</ele>
        <time>2017-05-20T06:32:04.760Z</time>
      </trkpt>
      <trkpt lat="42.63087" lon="1.45098">
        <ele>1873</ele>
        <time>2017-05-20T06:32:12.760Z</time>
      </trkpt>
      <trkpt lat="42.6308" lon="1.45087">
        <ele>1869</ele>
        <time>2017-05-20T06:32:20.760Z</time>
      </trkpt>
      <trkpt lat="42.63072" lon="1.45077">
        <ele>1862</ele>
        <time>2017-05-20T06:32:28.760Z</time>
      </trkpt>
      <trkpt lat="42.63064" lon="1.45068">
        <ele>1860</ele>
        <time>2017-05-20T06:32:35.760Z</time>
      </trkpt>
      <trkpt lat="42.63054" lon="1.4506">
        <ele>1859</ele>
        <time>2017-05-20T06:32:43.760Z</time>
      </trkpt>
      <trkpt lat="42.63045" lon="1.45054">
        <ele>1858</ele>
        <time>2017-05-20T06:32:50.760Z</time>
      </trkpt>
      <trkpt lat="42.63035" lon="1.45049">
        <ele>1858</ele>
        <time>2017-05-20T06:32:57.760Z</time>
      </trkpt>
      <trkpt lat="42.63025" lon="1.45046">
        <ele>1858</ele>
        <time>2017-05-20T06:33:04.760Z</time>
      </trkpt>
      <trkpt lat="42.63016" lon="1.45046">
        <ele>1858</ele>
        <time>2017-05-20T06:33:14.760Z</time>
      </trkpt>
      <trkpt lat="42.63007" lon="1.45051">
        <ele>1859</ele>
        <time>2017-05-20T06:33:32.760Z</time>
      </trkpt>
      <trkpt lat="42.62998" lon="1.45058">
        <ele>1858</ele>
        <time>2017-05-20T06:33:39.760Z</time>
      </trkpt>
      <trkpt lat="42.62992" lon="1.45062">
        <ele>1858</ele>
        <time>2017-05-20T06:33:51.760Z</time>
      </trkpt>
      <trkpt lat="42.62989" lon="1.45074">
        <ele>1860</ele>
        <time>2017-05-20T06:34:28.760Z</time>
      </trkpt>
      <trkpt lat="42.62982" lon="1.45085">
        <ele>1870</ele>
        <time>2017-05-20T06:34:37.760Z</time>
      </trkpt>
      <trkpt lat="42.62974" lon="1.45094">
        <ele>1871</ele>
        <time>2017-05-20T06:34:44.760Z</time>
      </trkpt>
      <trkpt lat="42.62966" lon="1.45104">
        <ele>1872</ele>
        <time>2017-05-20T06:34:52.760Z</time>
      </trkpt>
      <trkpt lat="42.62958" lon="1.45112">
        <ele>1872</ele>
        <time>2017-05-20T06:34:58.760Z</time>
      </trkpt>
      <trkpt lat="42.62951" lon="1.45122">
        <ele>1874</ele>
        <time>2017-05-20T06:35:06.760Z</time>
      </trkpt>
      <trkpt lat="42.62941" lon="1.45126">
        <ele>1874</ele>
        <time>2017-05-20T06:35:13.760Z</time>
      </trkpt>
      <trkpt lat="42.6293" lon="1.45128">
        <ele>1873</ele>
        <time>2017-05-20T06:35:21.760Z</time>
      </trkpt>
      <trkpt lat="42.6292" lon="1.45125">
        <ele>1872</ele>
        <time>2017-05-20T06:35:28.760Z</time>
      </trkpt>
      <trkpt lat="42.6291" lon="1.45124">
        <ele>1865</ele>
        <time>2017-05-20T06:35:35.760Z</time>
      </trkpt>
      <trkpt lat="42.629" lon="1.45122">
        <ele>1865</ele>
        <time>2017-05-20T06:35:42.760Z</time>
      </trkpt>
      <trkpt lat="42.6289" lon="1.45122">
        <ele>1865</ele>
        <time>2017-05-20T06:35:49.760Z</time>
      </trkpt>
      <trkpt lat="42.62879" lon="1.45121">
        <ele>1865</ele>
        <time>2017-05-20T06:35:56.760Z</time>
      </trkpt>
      <trkpt lat="42.62869" lon="1.45119">
        <ele>1865</ele>
        <time>2017-05-20T06:36:02.760Z</time>
      </trkpt>
      <trkpt lat="42.62858" lon="1.45121">
        <ele>1865</ele>
        <time>2017-05-20T06:36:10.760Z</time>
      </trkpt>
      <trkpt lat="42.62847" lon="1.45121">
        <ele>1865</ele>
        <time>2017-05-20T06:36:18.760Z</time>
      </trkpt>
      <trkpt lat="42.62836" lon="1.45123">
        <ele>1865</ele>
        <time>2017-05-20T06:36:26.760Z</time>
      </trkpt>
      <trkpt lat="42.62825" lon="1.45125">
        <ele>1864</ele>
        <time>2017-05-20T06:36:34.760Z</time>
      </trkpt>
      <trkpt lat="42.62815" lon="1.45127">
        <ele>1864</ele>
        <time>2017-05-20T06:36:41.760Z</time>
      </trkpt>
      <trkpt lat="42.62804" lon="1.45127">
        <ele>1864</ele>
        <time>2017-05-20T06:36:49.760Z</time>
      </trkpt>
      <trkpt lat="42.62793" lon="1.45128">
        <ele>1864</ele>
        <time>2017-05-20T06:36:56.760Z</time>
      </trkpt>
      <trkpt lat="42.62783" lon="1.45129">
        <ele>1864</ele>
        <time>2017-05-20T06:37:03.760Z</time>
      </trkpt>
      <trkpt lat="42.62773" lon="1.45131">
        <ele>1865</ele>
        <time>2017-05-20T06:37:11.760Z</time>
      </trkpt>
      <trkpt lat="42.62762" lon="1.45134">
        <ele>1865</ele>
        <time>2017-05-20T06:37:19.760Z</time>
      </trkpt>
      <trkpt lat="42.62751" lon="1.45137">
        <ele>1866</ele>
        <time>2017-05-20T06:37:27.760Z</time>
      </trkpt>
      <trkpt lat="42.62741" lon="1.45138">
        <ele>1866</ele>
        <time>2017-05-20T06:37:34.760Z</time>
      </trkpt>
      <trkpt lat="42.6273" lon="1.45141">
        <ele>1866</ele>
        <time>2017-05-20T06:37:42.760Z</time>
      </trkpt>
      <trkpt lat="42.6272" lon="1.45144">
        <ele>1866</ele>
        <time>2017-05-20T06:37:50.760Z</time>
      </trkpt>
      <trkpt lat="42.62709" lon="1.45145">
        <ele>1866</ele>
        <time>2017-05-20T06:37:57.760Z</time>
      </trkpt>
      <trkpt lat="42.62698" lon="1.45147">
        <ele>1866</ele>
        <time>2017-05-20T06:38:05.760Z</time>
      </trkpt>
      <trkpt lat="42.62688" lon="1.4515">
        <ele>1867</ele>
        <time>2017-05-20T06:38:14.760Z</time>
      </trkpt>
      <trkpt lat="42.62677" lon="1.45152">
        <ele>1867</ele>
        <time>2017-05-20T06:38:22.760Z</time>
      </trkpt>
      <trkpt lat="42.62667" lon="1.45154">
        <ele>1868</ele>
        <time>2017-05-20T06:38:31.760Z</time>
      </trkpt>
      <trkpt lat="42.62656" lon="1.45155">
        <ele>1868</ele>
        <time>2017-05-20T06:38:40.760Z</time>
      </trkpt>
      <trkpt lat="42.62646" lon="1.45158">
        <ele>1867</ele>
        <time>2017-05-20T06:38:48.760Z</time>
      </trkpt>
      <trkpt lat="42.62636" lon="1.45161">
        <ele>1867</ele>
        <time>2017-05-20T06:38:56.760Z</time>
      </trkpt>
      <trkpt lat="42.62626" lon="1.45163">
        <ele>1866</ele>
        <time>2017-05-20T06:39:04.760Z</time>
      </trkpt>
      <trkpt lat="42.62613" lon="1.4517">
        <ele>1876</ele>
        <time>2017-05-20T06:39:14.759Z</time>
      </trkpt>
      <trkpt lat="42.62601" lon="1.45173">
        <ele>1874</ele>
        <time>2017-05-20T06:39:22.760Z</time>
      </trkpt>
      <trkpt lat="42.62593" lon="1.45183">
        <ele>1875</ele>
        <time>2017-05-20T06:39:30.756Z</time>
      </trkpt>
      <trkpt lat="42.62582" lon="1.45186">
        <ele>1874</ele>
        <time>2017-05-20T06:39:38.764Z</time>
      </trkpt>
      <trkpt lat="42.62564" lon="1.45199">
        <ele>1878</ele>
        <time>2017-05-20T06:39:53.760Z</time>
      </trkpt>
      <trkpt lat="42.62556" lon="1.45207">
        <ele>1880</ele>
        <time>2017-05-20T06:40:02.760Z</time>
      </trkpt>
      <trkpt lat="42.62544" lon="1.45215">
        <ele>1881</ele>
        <time>2017-05-20T06:40:11.761Z</time>
      </trkpt>
      <trkpt lat="42.62531" lon="1.45214">
        <ele>1881</ele>
        <time>2017-05-20T06:40:19.655Z</time>
      </trkpt>
      <trkpt lat="42.62519" lon="1.45214">
        <ele>1881</ele>
        <time>2017-05-20T06:40:29.859Z</time>
      </trkpt>
      <trkpt lat="42.62509" lon="1.45214">
        <ele>1882</ele>
        <time>2017-05-20T06:40:35.861Z</time>
      </trkpt>
      <trkpt lat="42.62499" lon="1.45205">
        <ele>1884</ele>
        <time>2017-05-20T06:40:52.667Z</time>
      </trkpt>
      <trkpt lat="42.62489" lon="1.45203">
        <ele>1884</ele>
        <time>2017-05-20T06:41:02.861Z</time>
      </trkpt>
      <trkpt lat="42.62477" lon="1.45202">
        <ele>1885</ele>
        <time>2017-05-20T06:41:10.660Z</time>
      </trkpt>
      <trkpt lat="42.62468" lon="1.45191">
        <ele>1884</ele>
        <time>2017-05-20T06:41:22.661Z</time>
      </trkpt>
      <trkpt lat="42.62456" lon="1.45192">
        <ele>1885</ele>
        <time>2017-05-20T06:41:32.864Z</time>
      </trkpt>
      <trkpt lat="42.62446" lon="1.45192">
        <ele>1886</ele>
        <time>2017-05-20T06:41:38.868Z</time>
      </trkpt>
      <trkpt lat="42.62423" lon="1.45188">
        <ele>1886</ele>
        <time>2017-05-20T06:41:50.753Z</time>
      </trkpt>
      <trkpt lat="42.62415" lon="1.4518">
        <ele>1891</ele>
        <time>2017-05-20T06:41:56.759Z</time>
      </trkpt>
      <trkpt lat="42.62406" lon="1.4517">
        <ele>1890</ele>
        <time>2017-05-20T06:42:06.760Z</time>
      </trkpt>
      <trkpt lat="42.62395" lon="1.45166">
        <ele>1885</ele>
        <time>2017-05-20T06:42:13.759Z</time>
      </trkpt>
      <trkpt lat="42.62385" lon="1.45159">
        <ele>1887</ele>
        <time>2017-05-20T06:42:23.760Z</time>
      </trkpt>
      <trkpt lat="42.62374" lon="1.45149">
        <ele>1889</ele>
        <time>2017-05-20T06:42:33.759Z</time>
      </trkpt>
      <trkpt lat="42.62369" lon="1.45136">
        <ele>1889</ele>
        <time>2017-05-20T06:42:42.766Z</time>
      </trkpt>
      <trkpt lat="42.6236" lon="1.45127">
        <ele>1889</ele>
        <time>2017-05-20T06:42:54.760Z</time>
      </trkpt>
      <trkpt lat="42.62366" lon="1.45139">
        <ele>1890</ele>
        <time>2017-05-20T06:43:13.763Z</time>
      </trkpt>
      <trkpt lat="42.62356" lon="1.45135">
        <ele>1891</ele>
        <time>2017-05-20T06:43:21.762Z</time>
      </trkpt>
      <trkpt lat="42.62344" lon="1.45133">
        <ele>1892</ele>
        <time>2017-05-20T06:43:36.760Z</time>
      </trkpt>
      <trkpt lat="42.62332" lon="1.45132">
        <ele>1906</ele>
        <time>2017-05-20T06:43:44.757Z</time>
      </trkpt>
      <trkpt lat="42.62322" lon="1.45128">
        <ele>1907</ele>
        <time>2017-05-20T06:43:54.760Z</time>
      </trkpt>
      <trkpt lat="42.62312" lon="1.45135">
        <ele>1908</ele>
        <time>2017-05-20T06:44:08.761Z</time>
      </trkpt>
      <trkpt lat="42.62304" lon="1.45142">
        <ele>1909</ele>
        <time>2017-05-20T06:44:16.759Z</time>
      </trkpt>
      <trkpt lat="42.62294" lon="1.45146">
        <ele>1910</ele>
        <time>2017-05-20T06:44:35.756Z</time>
      </trkpt>
      <trkpt lat="42.62283" lon="1.45154">
        <ele>1912</ele>
        <time>2017-05-20T06:44:56.756Z</time>
      </trkpt>
      <trkpt lat="42.62271" lon="1.45152">
        <ele>1914</ele>
        <time>2017-05-20T06:45:03.755Z</time>
      </trkpt>
      <trkpt lat="42.6226" lon="1.45152">
        <ele>1916</ele>
        <time>2017-05-20T06:45:18.755Z</time>
      </trkpt>
      <trkpt lat="42.62251" lon="1.4515">
        <ele>1916</ele>
        <time>2017-05-20T06:45:28.760Z</time>
      </trkpt>
      <trkpt lat="42.62246" lon="1.45162">
        <ele>1923</ele>
        <time>2017-05-20T06:45:42.758Z</time>
      </trkpt>
      <trkpt lat="42.62236" lon="1.45168">
        <ele>1927</ele>
        <time>2017-05-20T06:45:51.759Z</time>
      </trkpt>
      <trkpt lat="42.62226" lon="1.45171">
        <ele>1929</ele>
        <time>2017-05-20T06:46:03.766Z</time>
      </trkpt>
      <trkpt lat="42.62214" lon="1.4517">
        <ele>1931</ele>
        <time>2017-05-20T06:46:12.761Z</time>
      </trkpt>
      <trkpt lat="42.62203" lon="1.45171">
        <ele>1932</ele>
        <time>2017-05-20T06:46:19.757Z</time>
      </trkpt>
      <trkpt lat="42.62192" lon="1.45173">
        <ele>1933</ele>
        <time>2017-05-20T06:46:28.765Z</time>
      </trkpt>
      <trkpt lat="42.62181" lon="1.45179">
        <ele>1934</ele>
        <time>2017-05-20T06:46:40.754Z</time>
      </trkpt>
      <trkpt lat="42.62172" lon="1.4518">
        <ele>1934</ele>
        <time>2017-05-20T06:46:52.756Z</time>
      </trkpt>
      <trkpt lat="42.62164" lon="1.45191">
        <ele>1941</ele>
        <time>2017-05-20T06:47:04.760Z</time>
      </trkpt>
      <trkpt lat="42.62154" lon="1.45196">
        <ele>1942</ele>
        <time>2017-05-20T06:47:19.760Z</time>
      </trkpt>
      <trkpt lat="42.62147" lon="1.45206">
        <ele>1943</ele>
        <time>2017-05-20T06:47:31.760Z</time>
      </trkpt>
      <trkpt lat="42.6214" lon="1.45217">
        <ele>1944</ele>
        <time>2017-05-20T06:47:42.760Z</time>
      </trkpt>
      <trkpt lat="42.62134" lon="1.45228">
        <ele>1945</ele>
        <time>2017-05-20T06:47:57.760Z</time>
      </trkpt>
      <trkpt lat="42.62125" lon="1.45233">
        <ele>1946</ele>
        <time>2017-05-20T06:48:11.760Z</time>
      </trkpt>
      <trkpt lat="42.62116" lon="1.45241">
        <ele>1947</ele>
        <time>2017-05-20T06:48:26.760Z</time>
      </trkpt>
      <trkpt lat="42.6211" lon="1.45252">
        <ele>1956</ele>
        <time>2017-05-20T06:48:40.760Z</time>
      </trkpt>
      <trkpt lat="42.62101" lon="1.45258">
        <ele>1957</ele>
        <time>2017-05-20T06:48:51.760Z</time>
      </trkpt>
      <trkpt lat="42.62091" lon="1.45257">
        <ele>1957</ele>
        <time>2017-05-20T06:49:03.760Z</time>
      </trkpt>
      <trkpt lat="42.62081" lon="1.45258">
        <ele>1961</ele>
        <time>2017-05-20T06:49:15.760Z</time>
      </trkpt>
      <trkpt lat="42.62071" lon="1.45263">
        <ele>1964</ele>
        <time>2017-05-20T06:49:29.760Z</time>
      </trkpt>
      <trkpt lat="42.62062" lon="1.45267">
        <ele>1967</ele>
        <time>2017-05-20T06:49:40.760Z</time>
      </trkpt>
      <trkpt lat="42.62057" lon="1.45277">
        <ele>1970</ele>
        <time>2017-05-20T06:49:54.760Z</time>
      </trkpt>
      <trkpt lat="42.62048" lon="1.45282">
        <ele>1971</ele>
        <time>2017-05-20T06:50:07.760Z</time>
      </trkpt>
      <trkpt lat="42.62041" lon="1.4529">
        <ele>1973</ele>
        <time>2017-05-20T06:50:21.760Z</time>
      </trkpt>
      <trkpt lat="42.62033" lon="1.45299">
        <ele>1975</ele>
        <time>2017-05-20T06:50:35.760Z</time>
      </trkpt>
      <trkpt lat="42.62023" lon="1.45301">
        <ele>1976</ele>
        <time>2017-05-20T06:50:48.760Z</time>
      </trkpt>
      <trkpt lat="42.62013" lon="1.45301">
        <ele>1977</ele>
        <time>2017-05-20T06:51:00.760Z</time>
      </trkpt>
      <trkpt lat="42.62004" lon="1.45311">
        <ele>1980</ele>
        <time>2017-05-20T06:51:17.761Z</time>
      </trkpt>
      <trkpt lat="42.61992" lon="1.45309">
        <ele>1994</ele>
        <time>2017-05-20T06:51:25.763Z</time>
      </trkpt>
      <trkpt lat="42.61982" lon="1.45314">
        <ele>1995</ele>
        <time>2017-05-20T06:51:47.766Z</time>
      </trkpt>
      <trkpt lat="42.61982" lon="1.45328">
        <ele>1994</ele>
        <time>2017-05-20T06:52:12.764Z</time>
      </trkpt>
      <trkpt lat="42.61982" lon="1.45342">
        <ele>2002</ele>
        <time>2017-05-20T06:52:25.760Z</time>
      </trkpt>
      <trkpt lat="42.61972" lon="1.45341">
        <ele>2005</ele>
        <time>2017-05-20T06:52:38.760Z</time>
      </trkpt>
      <trkpt lat="42.61966" lon="1.45353">
        <ele>2007</ele>
        <time>2017-05-20T06:52:49.764Z</time>
      </trkpt>
      <trkpt lat="42.61956" lon="1.45355">
        <ele>2009</ele>
        <time>2017-05-20T06:53:10.766Z</time>
      </trkpt>
      <trkpt lat="42.61947" lon="1.45361">
        <ele>2010</ele>
        <time>2017-05-20T06:53:24.757Z</time>
      </trkpt>
      <trkpt lat="42.61937" lon="1.45354">
        <ele>2011</ele>
        <time>2017-05-20T06:53:31.766Z</time>
      </trkpt>
      <trkpt lat="42.61924" lon="1.4535">
        <ele>2011</ele>
        <time>2017-05-20T06:54:39.756Z</time>
      </trkpt>
      <trkpt lat="42.61913" lon="1.45347">
        <ele>2018</ele>
        <time>2017-05-20T06:54:46.756Z</time>
      </trkpt>
      <trkpt lat="42.61903" lon="1.45344">
        <ele>2019</ele>
        <time>2017-05-20T06:55:01.756Z</time>
      </trkpt>
      <trkpt lat="42.61904" lon="1.45358">
        <ele>2022</ele>
        <time>2017-05-20T06:55:06.760Z</time>
      </trkpt>
      <trkpt lat="42.619" lon="1.45371">
        <ele>2024</ele>
        <time>2017-05-20T06:55:15.760Z</time>
      </trkpt>
      <trkpt lat="42.61898" lon="1.45384">
        <ele>2025</ele>
        <time>2017-05-20T06:55:33.760Z</time>
      </trkpt>
      <trkpt lat="42.61887" lon="1.45387">
        <ele>2026</ele>
        <time>2017-05-20T06:55:47.760Z</time>
      </trkpt>
      <trkpt lat="42.61877" lon="1.4539">
        <ele>2027</ele>
        <time>2017-05-20T06:56:07.760Z</time>
      </trkpt>
      <trkpt lat="42.61867" lon="1.45388">
        <ele>2028</ele>
        <time>2017-05-20T06:56:17.762Z</time>
      </trkpt>
      <trkpt lat="42.61856" lon="1.45389">
        <ele>2030</ele>
        <time>2017-05-20T06:56:24.764Z</time>
      </trkpt>
      <trkpt lat="42.61843" lon="1.45387">
        <ele>2031</ele>
        <time>2017-05-20T06:56:41.756Z</time>
      </trkpt>
      <trkpt lat="42.61844" lon="1.45401">
        <ele>2032</ele>
        <time>2017-05-20T06:56:52.755Z</time>
      </trkpt>
      <trkpt lat="42.61844" lon="1.45415">
        <ele>2034</ele>
        <time>2017-05-20T06:57:02.753Z</time>
      </trkpt>
      <trkpt lat="42.61835" lon="1.45424">
        <ele>2039</ele>
        <time>2017-05-20T06:57:18.754Z</time>
      </trkpt>
      <trkpt lat="42.61831" lon="1.45438">
        <ele>2048</ele>
        <time>2017-05-20T06:57:29.755Z</time>
      </trkpt>
      <trkpt lat="42.61822" lon="1.45444">
        <ele>2051</ele>
        <time>2017-05-20T06:57:37.760Z</time>
      </trkpt>
      <trkpt lat="42.61814" lon="1.4545">
        <ele>2053</ele>
        <time>2017-05-20T06:57:45.761Z</time>
      </trkpt>
      <trkpt lat="42.61817" lon="1.45464">
        <ele>2054</ele>
        <time>2017-05-20T06:57:55.760Z</time>
      </trkpt>
      <trkpt lat="42.61818" lon="1.45478">
        <ele>2055</ele>
        <time>2017-05-20T06:58:12.761Z</time>
      </trkpt>
      <trkpt lat="42.61825" lon="1.45489">
        <ele>2055</ele>
        <time>2017-05-20T06:58:19.767Z</time>
      </trkpt>
      <trkpt lat="42.61823" lon="1.45503">
        <ele>2062</ele>
        <time>2017-05-20T06:58:40.759Z</time>
      </trkpt>
      <trkpt lat="42.6181" lon="1.45501">
        <ele>2067</ele>
        <time>2017-05-20T06:58:46.760Z</time>
      </trkpt>
      <trkpt lat="42.61801" lon="1.45509">
        <ele>2071</ele>
        <time>2017-05-20T06:58:54.760Z</time>
      </trkpt>
      <trkpt lat="42.61789" lon="1.45517">
        <ele>2074</ele>
        <time>2017-05-20T06:59:05.760Z</time>
      </trkpt>
      <trkpt lat="42.61779" lon="1.45519">
        <ele>2076</ele>
        <time>2017-05-20T06:59:30.757Z</time>
      </trkpt>
      <trkpt lat="42.61777" lon="1.45523">
        <ele>2076</ele>
        <time>2017-05-20T07:00:06.758Z</time>
      </trkpt>
      <trkpt lat="42.61767" lon="1.45525">
        <ele>2077</ele>
        <time>2017-05-20T07:00:27.767Z</time>
      </trkpt>
      <trkpt lat="42.61755" lon="1.45526">
        <ele>2078</ele>
        <time>2017-05-20T07:00:52.766Z</time>
      </trkpt>
      <trkpt lat="42.61744" lon="1.45526">
        <ele>2087</ele>
        <time>2017-05-20T07:01:09.760Z</time>
      </trkpt>
      <trkpt lat="42.61734" lon="1.45523">
        <ele>2088</ele>
        <time>2017-05-20T07:01:32.760Z</time>
      </trkpt>
      <trkpt lat="42.61724" lon="1.45519">
        <ele>2089</ele>
        <time>2017-05-20T07:01:40.760Z</time>
      </trkpt>
      <trkpt lat="42.61715" lon="1.45522">
        <ele>2091</ele>
        <time>2017-05-20T07:01:56.760Z</time>
      </trkpt>
      <trkpt lat="42.61707" lon="1.45523">
        <ele>2092</ele>
        <time>2017-05-20T07:02:12.760Z</time>
      </trkpt>
      <trkpt lat="42.61697" lon="1.45523">
        <ele>2093</ele>
        <time>2017-05-20T07:02:26.760Z</time>
      </trkpt>
      <trkpt lat="42.61687" lon="1.45521">
        <ele>2094</ele>
        <time>2017-05-20T07:02:35.760Z</time>
      </trkpt>
      <trkpt lat="42.61676" lon="1.4552">
        <ele>2095</ele>
        <time>2017-05-20T07:02:42.760Z</time>
      </trkpt>
      <trkpt lat="42.61685" lon="1.45531">
        <ele>2095</ele>
        <time>2017-05-20T07:02:53.760Z</time>
      </trkpt>
      <trkpt lat="42.61675" lon="1.45528">
        <ele>2095</ele>
        <time>2017-05-20T07:03:12.762Z</time>
      </trkpt>
      <trkpt lat="42.61685" lon="1.45524">
        <ele>2095</ele>
        <time>2017-05-20T07:03:34.762Z</time>
      </trkpt>
      <trkpt lat="42.61675" lon="1.45528">
        <ele>2095</ele>
        <time>2017-05-20T07:03:48.760Z</time>
      </trkpt>
      <trkpt lat="42.61665" lon="1.45525">
        <ele>2103</ele>
        <time>2017-05-20T07:04:46.760Z</time>
      </trkpt>
      <trkpt lat="42.61655" lon="1.45524">
        <ele>2103</ele>
        <time>2017-05-20T07:04:57.753Z</time>
      </trkpt>
      <trkpt lat="42.61645" lon="1.45525">
        <ele>2104</ele>
        <time>2017-05-20T07:05:03.757Z</time>
      </trkpt>
      <trkpt lat="42.61637" lon="1.45534">
        <ele>2106</ele>
        <time>2017-05-20T07:05:21.759Z</time>
      </trkpt>
      <trkpt lat="42.61621" lon="1.45538">
        <ele>2107</ele>
        <time>2017-05-20T07:05:35.760Z</time>
      </trkpt>
      <trkpt lat="42.6161" lon="1.45543">
        <ele>2108</ele>
        <time>2017-05-20T07:05:50.760Z</time>
      </trkpt>
      <trkpt lat="42.616" lon="1.45548">
        <ele>2109</ele>
        <time>2017-05-20T07:06:05.761Z</time>
      </trkpt>
      <trkpt lat="42.6159" lon="1.45552">
        <ele>2110</ele>
        <time>2017-05-20T07:06:19.760Z</time>
      </trkpt>
      <trkpt lat="42.6158" lon="1.45556">
        <ele>2118</ele>
        <time>2017-05-20T07:06:28.763Z</time>
      </trkpt>
      <trkpt lat="42.61569" lon="1.45559">
        <ele>2118</ele>
        <time>2017-05-20T07:06:44.760Z</time>
      </trkpt>
      <trkpt lat="42.61559" lon="1.45562">
        <ele>2119</ele>
        <time>2017-05-20T07:06:55.755Z</time>
      </trkpt>
      <trkpt lat="42.61548" lon="1.45572">
        <ele>2120</ele>
        <time>2017-05-20T07:07:15.760Z</time>
      </trkpt>
      <trkpt lat="42.61538" lon="1.4558">
        <ele>2122</ele>
        <time>2017-05-20T07:07:30.765Z</time>
      </trkpt>
      <trkpt lat="42.6153" lon="1.45587">
        <ele>2133</ele>
        <time>2017-05-20T07:07:49.753Z</time>
      </trkpt>
      <trkpt lat="42.61519" lon="1.45588">
        <ele>2133</ele>
        <time>2017-05-20T07:08:05.753Z</time>
      </trkpt>
      <trkpt lat="42.6151" lon="1.45595">
        <ele>2134</ele>
        <time>2017-05-20T07:08:21.758Z</time>
      </trkpt>
      <trkpt lat="42.61498" lon="1.45604">
        <ele>2144</ele>
        <time>2017-05-20T07:08:36.760Z</time>
      </trkpt>
      <trkpt lat="42.61489" lon="1.45605">
        <ele>2145</ele>
        <time>2017-05-20T07:08:55.760Z</time>
      </trkpt>
      <trkpt lat="42.61478" lon="1.45604">
        <ele>2147</ele>
        <time>2017-05-20T07:09:17.757Z</time>
      </trkpt>
      <trkpt lat="42.61472" lon="1.45616">
        <ele>2150</ele>
        <time>2017-05-20T07:09:35.756Z</time>
      </trkpt>
      <trkpt lat="42.61463" lon="1.45625">
        <ele>2152</ele>
        <time>2017-05-20T07:10:02.760Z</time>
      </trkpt>
      <trkpt lat="42.61454" lon="1.45634">
        <ele>2154</ele>
        <time>2017-05-20T07:10:15.764Z</time>
      </trkpt>
      <trkpt lat="42.61445" lon="1.45642">
        <ele>2157</ele>
        <time>2017-05-20T07:10:35.759Z</time>
      </trkpt>
      <trkpt lat="42.61438" lon="1.45652">
        <ele>2160</ele>
        <time>2017-05-20T07:11:02.763Z</time>
      </trkpt>
      <trkpt lat="42.61429" lon="1.45657">
        <ele>2163</ele>
        <time>2017-05-20T07:11:20.764Z</time>
      </trkpt>
      <trkpt lat="42.6142" lon="1.45663">
        <ele>2169</ele>
        <time>2017-05-20T07:11:30.761Z</time>
      </trkpt>
      <trkpt lat="42.6141" lon="1.45662">
        <ele>2174</ele>
        <time>2017-05-20T07:11:45.767Z</time>
      </trkpt>
      <trkpt lat="42.61404" lon="1.45672">
        <ele>2187</ele>
        <time>2017-05-20T07:12:27.760Z</time>
      </trkpt>
      <trkpt lat="42.61394" lon="1.45672">
        <ele>2192</ele>
        <time>2017-05-20T07:12:50.760Z</time>
      </trkpt>
      <trkpt lat="42.61384" lon="1.45667">
        <ele>2196</ele>
        <time>2017-05-20T07:13:03.761Z</time>
      </trkpt>
      <trkpt lat="42.61373" lon="1.4567">
        <ele>2200</ele>
        <time>2017-05-20T07:13:17.755Z</time>
      </trkpt>
      <trkpt lat="42.61363" lon="1.45664">
        <ele>2187</ele>
        <time>2017-05-20T07:13:27.762Z</time>
      </trkpt>
      <trkpt lat="42.61362" lon="1.45652">
        <ele>2187</ele>
        <time>2017-05-20T07:13:54.763Z</time>
      </trkpt>
      <trkpt lat="42.61351" lon="1.45652">
        <ele>2190</ele>
        <time>2017-05-20T07:14:10.760Z</time>
      </trkpt>
      <trkpt lat="42.61342" lon="1.45646">
        <ele>2191</ele>
        <time>2017-05-20T07:14:23.757Z</time>
      </trkpt>
      <trkpt lat="42.61332" lon="1.45648">
        <ele>2209</ele>
        <time>2017-05-20T07:14:30.761Z</time>
      </trkpt>
      <trkpt lat="42.61322" lon="1.45643">
        <ele>2210</ele>
        <time>2017-05-20T07:14:49.760Z</time>
      </trkpt>
      <trkpt lat="42.61315" lon="1.45651">
        <ele>2211</ele>
        <time>2017-05-20T07:15:38.760Z</time>
      </trkpt>
      <trkpt lat="42.61309" lon="1.45662">
        <ele>2212</ele>
        <time>2017-05-20T07:15:53.758Z</time>
      </trkpt>
      <trkpt lat="42.61299" lon="1.45657">
        <ele>2214</ele>
        <time>2017-05-20T07:16:03.754Z</time>
      </trkpt>
      <trkpt lat="42.6129" lon="1.45648">
        <ele>2216</ele>
        <time>2017-05-20T07:16:11.753Z</time>
      </trkpt>
      <trkpt lat="42.61283" lon="1.45638">
        <ele>2216</ele>
        <time>2017-05-20T07:16:37.760Z</time>
      </trkpt>
      <trkpt lat="42.61273" lon="1.45644">
        <ele>2219</ele>
        <time>2017-05-20T07:17:04.763Z</time>
      </trkpt>
      <trkpt lat="42.61263" lon="1.45641">
        <ele>2221</ele>
        <time>2017-05-20T07:17:20.764Z</time>
      </trkpt>
      <trkpt lat="42.61253" lon="1.45641">
        <ele>2222</ele>
        <time>2017-05-20T07:17:37.763Z</time>
      </trkpt>
      <trkpt lat="42.61242" lon="1.4564">
        <ele>2238</ele>
        <time>2017-05-20T07:17:46.752Z</time>
      </trkpt>
      <trkpt lat="42.6123" lon="1.45633">
        <ele>2238</ele>
        <time>2017-05-20T07:18:24.760Z</time>
      </trkpt>
      <trkpt lat="42.6122" lon="1.45631">
        <ele>2239</ele>
        <time>2017-05-20T07:18:58.757Z</time>
      </trkpt>
      <trkpt lat="42.61209" lon="1.4563">
        <ele>2241</ele>
        <time>2017-05-20T07:19:09.758Z</time>
      </trkpt>
      <trkpt lat="42.61198" lon="1.45631">
        <ele>2242</ele>
        <time>2017-05-20T07:19:25.757Z</time>
      </trkpt>
      <trkpt lat="42.61188" lon="1.4563">
        <ele>2244</ele>
        <time>2017-05-20T07:19:33.758Z</time>
      </trkpt>
      <trkpt lat="42.61177" lon="1.45631">
        <ele>2245</ele>
        <time>2017-05-20T07:19:46.763Z</time>
      </trkpt>
      <trkpt lat="42.6117" lon="1.45641">
        <ele>2248</ele>
        <time>2017-05-20T07:20:23.768Z</time>
      </trkpt>
      <trkpt lat="42.6116" lon="1.45646">
        <ele>2264</ele>
        <time>2017-05-20T07:20:56.756Z</time>
      </trkpt>
      <trkpt lat="42.6115" lon="1.45649">
        <ele>2265</ele>
        <time>2017-05-20T07:21:07.764Z</time>
      </trkpt>
      <trkpt lat="42.61141" lon="1.45644">
        <ele>2266</ele>
        <time>2017-05-20T07:21:18.753Z</time>
      </trkpt>
      <trkpt lat="42.61131" lon="1.45636">
        <ele>2267</ele>
        <time>2017-05-20T07:21:34.758Z</time>
      </trkpt>
      <trkpt lat="42.61122" lon="1.45628">
        <ele>2268</ele>
        <time>2017-05-20T07:21:53.762Z</time>
      </trkpt>
      <trkpt lat="42.61113" lon="1.45628">
        <ele>2270</ele>
        <time>2017-05-20T07:22:14.764Z</time>
      </trkpt>
      <trkpt lat="42.61104" lon="1.45636">
        <ele>2273</ele>
        <time>2017-05-20T07:22:23.752Z</time>
      </trkpt>
      <trkpt lat="42.61094" lon="1.4564">
        <ele>2275</ele>
        <time>2017-05-20T07:22:37.760Z</time>
      </trkpt>
      <trkpt lat="42.61087" lon="1.45629">
        <ele>2273</ele>
        <time>2017-05-20T07:22:57.760Z</time>
      </trkpt>
      <trkpt lat="42.61078" lon="1.45626">
        <ele>2292</ele>
        <time>2017-05-20T07:23:09.760Z</time>
      </trkpt>
      <trkpt lat="42.61067" lon="1.45624">
        <ele>2293</ele>
        <time>2017-05-20T07:23:25.760Z</time>
      </trkpt>
      <trkpt lat="42.61056" lon="1.45619">
        <ele>2293</ele>
        <time>2017-05-20T07:23:41.760Z</time>
      </trkpt>
      <trkpt lat="42.61045" lon="1.45616">
        <ele>2295</ele>
        <time>2017-05-20T07:24:01.760Z</time>
      </trkpt>
      <trkpt lat="42.61036" lon="1.45614">
        <ele>2297</ele>
        <time>2017-05-20T07:24:17.760Z</time>
      </trkpt>
      <trkpt lat="42.61026" lon="1.4561">
        <ele>2298</ele>
        <time>2017-05-20T07:24:33.760Z</time>
      </trkpt>
      <trkpt lat="42.61017" lon="1.45605">
        <ele>2299</ele>
        <time>2017-05-20T07:25:25.760Z</time>
      </trkpt>
      <trkpt lat="42.61007" lon="1.45603">
        <ele>2301</ele>
        <time>2017-05-20T07:25:41.760Z</time>
      </trkpt>
      <trkpt lat="42.60997" lon="1.45601">
        <ele>2316</ele>
        <time>2017-05-20T07:25:57.760Z</time>
      </trkpt>
      <trkpt lat="42.60987" lon="1.45598">
        <ele>2317</ele>
        <time>2017-05-20T07:26:17.760Z</time>
      </trkpt>
      <trkpt lat="42.60976" lon="1.45596">
        <ele>2321</ele>
        <time>2017-05-20T07:26:37.760Z</time>
      </trkpt>
      <trkpt lat="42.60969" lon="1.45601">
        <ele>2324</ele>
        <time>2017-05-20T07:26:57.760Z</time>
      </trkpt>
      <trkpt lat="42.60965" lon="1.4561">
        <ele>2326</ele>
        <time>2017-05-20T07:27:13.760Z</time>
      </trkpt>
      <trkpt lat="42.60962" lon="1.45621">
        <ele>2328</ele>
        <time>2017-05-20T07:27:29.760Z</time>
      </trkpt>
      <trkpt lat="42.60951" lon="1.45625">
        <ele>2330</ele>
        <time>2017-05-20T07:27:57.760Z</time>
      </trkpt>
      <trkpt lat="42.60939" lon="1.45624">
        <ele>2332</ele>
        <time>2017-05-20T07:29:25.760Z</time>
      </trkpt>
      <trkpt lat="42.60931" lon="1.45621">
        <ele>2333</ele>
        <time>2017-05-20T07:29:37.760Z</time>
      </trkpt>
      <trkpt lat="42.60921" lon="1.45618">
        <ele>2334</ele>
        <time>2017-05-20T07:29:53.760Z</time>
      </trkpt>
      <trkpt lat="42.60911" lon="1.45616">
        <ele>2356</ele>
        <time>2017-05-20T07:30:13.760Z</time>
      </trkpt>
      <trkpt lat="42.60904" lon="1.45614">
        <ele>2357</ele>
        <time>2017-05-20T07:30:29.760Z</time>
      </trkpt>
      <trkpt lat="42.60897" lon="1.45612">
        <ele>2358</ele>
        <time>2017-05-20T07:30:41.760Z</time>
      </trkpt>
      <trkpt lat="42.60887" lon="1.45606">
        <ele>2360</ele>
        <time>2017-05-20T07:31:01.760Z</time>
      </trkpt>
      <trkpt lat="42.60879" lon="1.45604">
        <ele>2362</ele>
        <time>2017-05-20T07:31:17.760Z</time>
      </trkpt>
      <trkpt lat="42.60869" lon="1.456">
        <ele>2365</ele>
        <time>2017-05-20T07:31:37.760Z</time>
      </trkpt>
      <trkpt lat="42.6086" lon="1.45598">
        <ele>2367</ele>
        <time>2017-05-20T07:31:53.760Z</time>
      </trkpt>
      <trkpt lat="42.60852" lon="1.45595">
        <ele>2369</ele>
        <time>2017-05-20T07:32:09.760Z</time>
      </trkpt>
      <trkpt lat="42.60844" lon="1.45593">
        <ele>2372</ele>
        <time>2017-05-20T07:32:33.760Z</time>
      </trkpt>
      <trkpt lat="42.6084" lon="1.45603">
        <ele>2371</ele>
        <time>2017-05-20T07:33:10.764Z</time>
      </trkpt>
      <trkpt lat="42.60842" lon="1.45615">
        <ele>2371</ele>
        <time>2017-05-20T07:33:37.758Z</time>
      </trkpt>
      <trkpt lat="42.60836" lon="1.45621">
        <ele>2372</ele>
        <time>2017-05-20T07:33:47.760Z</time>
      </trkpt>
      <trkpt lat="42.60827" lon="1.4563">
        <ele>2397</ele>
        <time>2017-05-20T07:34:24.758Z</time>
      </trkpt>
      <trkpt lat="42.6082" lon="1.4564">
        <ele>2398</ele>
        <time>2017-05-20T07:34:42.754Z</time>
      </trkpt>
      <trkpt lat="42.6081" lon="1.45646">
        <ele>2400</ele>
        <time>2017-05-20T07:34:56.759Z</time>
      </trkpt>
      <trkpt lat="42.60801" lon="1.45655">
        <ele>2402</ele>
        <time>2017-05-20T07:35:46.761Z</time>
      </trkpt>
      <trkpt lat="42.60792" lon="1.45663">
        <ele>2404</ele>
        <time>2017-05-20T07:36:19.753Z</time>
      </trkpt>
      <trkpt lat="42.60785" lon="1.45672">
        <ele>2416</ele>
        <time>2017-05-20T07:36:40.753Z</time>
      </trkpt>
      <trkpt lat="42.60776" lon="1.45663">
        <ele>2409</ele>
        <time>2017-05-20T07:37:03.754Z</time>
      </trkpt>
      <trkpt lat="42.60773" lon="1.45678">
        <ele>2419</ele>
        <time>2017-05-20T07:39:14.760Z</time>
      </trkpt>
      <trkpt lat="42.60774" lon="1.4569">
        <ele>2420</ele>
        <time>2017-05-20T07:39:38.757Z</time>
      </trkpt>
      <trkpt lat="42.60778" lon="1.45703">
        <ele>2421</ele>
        <time>2017-05-20T07:40:02.762Z</time>
      </trkpt>
      <trkpt lat="42.60774" lon="1.45717">
        <ele>2424</ele>
        <time>2017-05-20T07:40:29.759Z</time>
      </trkpt>
      <trkpt lat="42.60762" lon="1.4572">
        <ele>2427</ele>
        <time>2017-05-20T07:41:04.760Z</time>
      </trkpt>
      <trkpt lat="42.60762" lon="1.45733">
        <ele>2432</ele>
        <time>2017-05-20T07:41:46.762Z</time>
      </trkpt>
      <trkpt lat="42.60767" lon="1.45745">
        <ele>2434</ele>
        <time>2017-05-20T07:42:06.756Z</time>
      </trkpt>
      <trkpt lat="42.60759" lon="1.45755">
        <ele>2449</ele>
        <time>2017-05-20T07:42:16.761Z</time>
      </trkpt>
      <trkpt lat="42.60751" lon="1.45756">
        <ele>2449</ele>
        <time>2017-05-20T07:42:37.755Z</time>
      </trkpt>
      <trkpt lat="42.60753" lon="1.4577">
        <ele>2451</ele>
        <time>2017-05-20T07:43:14.760Z</time>
      </trkpt>
      <trkpt lat="42.60753" lon="1.45777">
        <ele>2452</ele>
        <time>2017-05-20T07:43:30.760Z</time>
      </trkpt>
      <trkpt lat="42.60752" lon="1.45786">
        <ele>2455</ele>
        <time>2017-05-20T07:43:50.760Z</time>
      </trkpt>
      <trkpt lat="42.60747" lon="1.45789">
        <ele>2475</ele>
        <time>2017-05-20T07:44:08.765Z</time>
      </trkpt>
      <trkpt lat="42.60738" lon="1.45797">
        <ele>2478</ele>
        <time>2017-05-20T07:44:30.752Z</time>
      </trkpt>
      <trkpt lat="42.60737" lon="1.4581">
        <ele>2482</ele>
        <time>2017-05-20T07:45:10.758Z</time>
      </trkpt>
      <trkpt lat="42.60727" lon="1.45813">
        <ele>2483</ele>
        <time>2017-05-20T07:45:37.756Z</time>
      </trkpt>
      <trkpt lat="42.60728" lon="1.45827">
        <ele>2485</ele>
        <time>2017-05-20T07:46:05.753Z</time>
      </trkpt>
      <trkpt lat="42.60725" lon="1.4584">
        <ele>2501</ele>
        <time>2017-05-20T07:47:07.756Z</time>
      </trkpt>
      <trkpt lat="42.60721" lon="1.4585">
        <ele>2503</ele>
        <time>2017-05-20T07:47:34.761Z</time>
      </trkpt>
      <trkpt lat="42.60717" lon="1.45861">
        <ele>2506</ele>
        <time>2017-05-20T07:48:12.760Z</time>
      </trkpt>
      <trkpt lat="42.60727" lon="1.45865">
        <ele>2506</ele>
        <time>2017-05-20T07:48:31.757Z</time>
      </trkpt>
      <trkpt lat="42.60719" lon="1.45875">
        <ele>2509</ele>
        <time>2017-05-20T07:49:19.757Z</time>
      </trkpt>
      <trkpt lat="42.6071" lon="1.45874">
        <ele>2509</ele>
        <time>2017-05-20T07:49:27.753Z</time>
      </trkpt>
      <trkpt lat="42.60707" lon="1.45877">
        <ele>2510</ele>
        <time>2017-05-20T07:53:30.760Z</time>
      </trkpt>
      <trkpt lat="42.60713" lon="1.45873">
        <ele>2509</ele>
        <time>2017-05-20T07:55:51.762Z</time>
      </trkpt>
      <trkpt lat="42.60705" lon="1.45864">
        <ele>2508</ele>
        <time>2017-05-20T07:56:07.760Z</time>
      </trkpt>
      <trkpt lat="42.60711" lon="1.45873">
        <ele>2509</ele>
        <time>2017-05-20T07:56:19.768Z</time>
      </trkpt>
      <trkpt lat="42.60711" lon="1.4589">
        <ele>2512</ele>
        <time>2017-05-20T07:58:01.760Z</time>
      </trkpt>
      <trkpt lat="42.60709" lon="1.45876">
        <ele>2509</ele>
        <time>2017-05-20T07:59:50.760Z</time>
      </trkpt>
      <trkpt lat="42.60706" lon="1.4589">
        <ele>2511</ele>
        <time>2017-05-20T08:00:50.760Z</time>
      </trkpt>
      <trkpt lat="42.60707" lon="1.45881">
        <ele>2510</ele>
        <time>2017-05-20T08:01:35.765Z</time>
      </trkpt>
      <trkpt lat="42.60715" lon="1.45889">
        <ele>2512</ele>
        <time>2017-05-20T08:02:31.760Z</time>
      </trkpt>
      <trkpt lat="42.60723" lon="1.45898">
        <ele>2514</ele>
        <time>2017-05-20T08:02:45.757Z</time>
      </trkpt>
      <trkpt lat="42.60724" lon="1.45912">
        <ele>2517</ele>
        <time>2017-05-20T08:03:04.760Z</time>
      </trkpt>
      <trkpt lat="42.60723" lon="1.45925">
        <ele>2527</ele>
        <time>2017-05-20T08:03:49.753Z</time>
      </trkpt>
      <trkpt lat="42.60721" lon="1.45939">
        <ele>2527</ele>
        <time>2017-05-20T08:04:24.759Z</time>
      </trkpt>
      <trkpt lat="42.60729" lon="1.45943">
        <ele>2527</ele>
        <time>2017-05-20T08:04:45.860Z</time>
      </trkpt>
      <trkpt lat="42.60727" lon="1.45955">
        <ele>2527</ele>
        <time>2017-05-20T08:05:16.758Z</time>
      </trkpt>
      <trkpt lat="42.60717" lon="1.45957">
        <ele>2527</ele>
        <time>2017-05-20T08:05:56.763Z</time>
      </trkpt>
      <trkpt lat="42.60727" lon="1.4596">
        <ele>2527</ele>
        <time>2017-05-20T08:06:05.756Z</time>
      </trkpt>
      <trkpt lat="42.60721" lon="1.45972">
        <ele>2527</ele>
        <time>2017-05-20T08:06:11.760Z</time>
      </trkpt>
      <trkpt lat="42.60724" lon="1.45981">
        <ele>2527</ele>
        <time>2017-05-20T08:06:42.760Z</time>
      </trkpt>
      <trkpt lat="42.60715" lon="1.45987">
        <ele>2527</ele>
        <time>2017-05-20T08:07:07.760Z</time>
      </trkpt>
      <trkpt lat="42.60715" lon="1.46003">
        <ele>2580</ele>
        <time>2017-05-20T08:07:52.760Z</time>
      </trkpt>
      <trkpt lat="42.60724" lon="1.46008">
        <ele>2578.6</ele>
        <time>2017-05-20T08:08:18.754Z</time>
      </trkpt>
      <trkpt lat="42.60714" lon="1.4601">
        <ele>2584.9</ele>
        <time>2017-05-20T08:08:39.760Z</time>
      </trkpt>
      <trkpt lat="42.60715" lon="1.46025">
        <ele>2593.3</ele>
        <time>2017-05-20T08:09:16.756Z</time>
      </trkpt>
      <trkpt lat="42.60721" lon="1.46037">
        <ele>2601.4</ele>
        <time>2017-05-20T08:09:34.760Z</time>
      </trkpt>
      <trkpt lat="42.60711" lon="1.46039">
        <ele>2610.1</ele>
        <time>2017-05-20T08:10:17.760Z</time>
      </trkpt>
      <trkpt lat="42.60718" lon="1.4605">
        <ele>2618.1</ele>
        <time>2017-05-20T08:10:46.760Z</time>
      </trkpt>
      <trkpt lat="42.6071" lon="1.46058">
        <ele>2630.6</ele>
        <time>2017-05-20T08:11:28.760Z</time>
      </trkpt>
      <trkpt lat="42.60714" lon="1.4607">
        <ele>2637.3</ele>
        <time>2017-05-20T08:12:08.760Z</time>
      </trkpt>
      <trkpt lat="42.60712" lon="1.46084">
        <ele>2647.3</ele>
        <time>2017-05-20T08:12:45.760Z</time>
      </trkpt>
      <trkpt lat="42.60701" lon="1.46094">
        <ele>2650.4</ele>
        <time>2017-05-20T08:13:01.760Z</time>
      </trkpt>
      <trkpt lat="42.60709" lon="1.46104">
        <ele>2658.7</ele>
        <time>2017-05-20T08:14:58.760Z</time>
      </trkpt>
      <trkpt lat="42.60711" lon="1.46117">
        <ele>2667.6</ele>
        <time>2017-05-20T08:15:52.760Z</time>
      </trkpt>
      <trkpt lat="42.60703" lon="1.46126">
        <ele>2666.8</ele>
        <time>2017-05-20T08:16:19.760Z</time>
      </trkpt>
      <trkpt lat="42.60713" lon="1.46132">
        <ele>2677.9</ele>
        <time>2017-05-20T08:16:56.760Z</time>
      </trkpt>
      <trkpt lat="42.60706" lon="1.46139">
        <ele>2676.1</ele>
        <time>2017-05-20T08:17:28.760Z</time>
      </trkpt>
      <trkpt lat="42.60704" lon="1.46147">
        <ele>2679.5</ele>
        <time>2017-05-20T08:18:08.760Z</time>
      </trkpt>
      <trkpt lat="42.60705" lon="1.46155">
        <ele>2685.6</ele>
        <time>2017-05-20T08:18:28.760Z</time>
      </trkpt>
      <trkpt lat="42.60706" lon="1.46169">
        <ele>2695.5</ele>
        <time>2017-05-20T08:19:36.760Z</time>
      </trkpt>
      <trkpt lat="42.60703" lon="1.46174">
        <ele>2696.1</ele>
        <time>2017-05-20T08:19:52.760Z</time>
      </trkpt>
      <trkpt lat="42.60703" lon="1.46182">
        <ele>2701.2</ele>
        <time>2017-05-20T08:20:33.760Z</time>
      </trkpt>
      <trkpt lat="42.60702" lon="1.46193">
        <ele>2707.2</ele>
        <time>2017-05-20T08:22:12.760Z</time>
      </trkpt>
      <trkpt lat="42.60696" lon="1.46205">
        <ele>2711.5</ele>
        <time>2017-05-20T08:23:03.760Z</time>
      </trkpt>
      <trkpt lat="42.60691" lon="1.46219">
        <ele>2724.8</ele>
        <time>2017-05-20T08:24:10.760Z</time>
      </trkpt>
      <trkpt lat="42.60691" lon="1.46234">
        <ele>2733</ele>
        <time>2017-05-20T08:25:26.760Z</time>
      </trkpt>
      <trkpt lat="42.60682" lon="1.46242">
        <ele>2739.9</ele>
        <time>2017-05-20T08:25:58.760Z</time>
      </trkpt>
      <trkpt lat="42.60682" lon="1.46212">
        <ele>2723.7</ele>
        <time>2017-05-20T08:26:22.760Z</time>
      </trkpt>
      <trkpt lat="42.60683" lon="1.4623">
        <ele>2734.8</ele>
        <time>2017-05-20T08:26:35.760Z</time>
      </trkpt>
      <trkpt lat="42.60682" lon="1.46244">
        <ele>2740.7</ele>
        <time>2017-05-20T08:27:14.758Z</time>
      </trkpt>
      <trkpt lat="42.60674" lon="1.46253">
        <ele>2748.1</ele>
        <time>2017-05-20T08:27:38.755Z</time>
      </trkpt>
      <trkpt lat="42.60685" lon="1.4625">
        <ele>2742.1</ele>
        <time>2017-05-20T08:28:10.761Z</time>
      </trkpt>
      <trkpt lat="42.60673" lon="1.46262">
        <ele>2755.3</ele>
        <time>2017-05-20T08:29:03.760Z</time>
      </trkpt>
      <trkpt lat="42.6067" lon="1.46275">
        <ele>2764</ele>
        <time>2017-05-20T08:29:25.757Z</time>
      </trkpt>
      <trkpt lat="42.60678" lon="1.46288">
        <ele>2776.7</ele>
        <time>2017-05-20T08:30:20.760Z</time>
      </trkpt>
      <trkpt lat="42.6067" lon="1.463">
        <ele>2777.8</ele>
        <time>2017-05-20T08:30:45.760Z</time>
      </trkpt>
      <trkpt lat="42.60669" lon="1.46315">
        <ele>2785.1</ele>
        <time>2017-05-20T08:32:35.760Z</time>
      </trkpt>
      <trkpt lat="42.60679" lon="1.4631">
        <ele>2790</ele>
        <time>2017-05-20T08:32:55.760Z</time>
      </trkpt>
      <trkpt lat="42.60669" lon="1.4632">
        <ele>2787.8</ele>
        <time>2017-05-20T08:33:45.760Z</time>
      </trkpt>
      <trkpt lat="42.6066" lon="1.46326">
        <ele>2823</ele>
        <time>2017-05-20T08:34:06.760Z</time>
      </trkpt>
      <trkpt lat="42.60666" lon="1.46338">
        <ele>2829</ele>
        <time>2017-05-20T08:35:36.751Z</time>
      </trkpt>
      <trkpt lat="42.6066" lon="1.4635">
        <ele>2829</ele>
        <time>2017-05-20T08:36:27.760Z</time>
      </trkpt>
      <trkpt lat="42.60664" lon="1.46364">
        <ele>2830</ele>
        <time>2017-05-20T08:37:05.760Z</time>
      </trkpt>
      <trkpt lat="42.6066" lon="1.46377">
        <ele>2831</ele>
        <time>2017-05-20T08:38:25.760Z</time>
      </trkpt>
      <trkpt lat="42.60665" lon="1.4639">
        <ele>2832</ele>
        <time>2017-05-20T08:39:03.760Z</time>
      </trkpt>
      <trkpt lat="42.60661" lon="1.46403">
        <ele>2833</ele>
        <time>2017-05-20T08:39:57.760Z</time>
      </trkpt>
      <trkpt lat="42.60653" lon="1.46409">
        <ele>2833</ele>
        <time>2017-05-20T08:40:33.760Z</time>
      </trkpt>
      <trkpt lat="42.60663" lon="1.46413">
        <ele>2834</ele>
        <time>2017-05-20T08:41:39.761Z</time>
      </trkpt>
      <trkpt lat="42.60655" lon="1.46403">
        <ele>2832</ele>
        <time>2017-05-20T08:43:51.770Z</time>
      </trkpt>
      <trkpt lat="42.60651" lon="1.46416">
        <ele>2833</ele>
        <time>2017-05-20T08:45:29.755Z</time>
      </trkpt>
      <trkpt lat="42.60658" lon="1.46406">
        <ele>2833</ele>
        <time>2017-05-20T08:46:30.762Z</time>
      </trkpt>
      <trkpt lat="42.60668" lon="1.46411">
        <ele>2834</ele>
        <time>2017-05-20T08:46:49.761Z</time>
      </trkpt>
      <trkpt lat="42.60679" lon="1.46406">
        <ele>2834</ele>
        <time>2017-05-20T08:48:17.760Z</time>
      </trkpt>
      <trkpt lat="42.60679" lon="1.46414">
        <ele>2834</ele>
        <time>2017-05-20T08:49:11.760Z</time>
      </trkpt>
      <trkpt lat="42.60681" lon="1.46429">
        <ele>2834</ele>
        <time>2017-05-20T08:50:14.754Z</time>
      </trkpt>
      <trkpt lat="42.6067" lon="1.46424">
        <ele>2834</ele>
        <time>2017-05-20T08:50:54.761Z</time>
      </trkpt>
      <trkpt lat="42.60662" lon="1.46412">
        <ele>2833</ele>
        <time>2017-05-20T08:51:54.761Z</time>
      </trkpt>
      <trkpt lat="42.60673" lon="1.46416">
        <ele>2834</ele>
        <time>2017-05-20T08:52:50.763Z</time>
      </trkpt>
      <trkpt lat="42.60678" lon="1.46408">
        <ele>2834</ele>
        <time>2017-05-20T08:53:46.760Z</time>
      </trkpt>
      <trkpt lat="42.60668" lon="1.4641">
        <ele>2834</ele>
        <time>2017-05-20T08:54:06.754Z</time>
      </trkpt>
      <trkpt lat="42.60674" lon="1.46412">
        <ele>2834</ele>
        <time>2017-05-20T08:56:03.760Z</time>
      </trkpt>
      <trkpt lat="42.60683" lon="1.46404">
        <ele>2834</ele>
        <time>2017-05-20T08:59:39.756Z</time>
      </trkpt>
      <trkpt lat="42.60672" lon="1.4641">
        <ele>2834</ele>
        <time>2017-05-20T09:00:55.767Z</time>
      </trkpt>
      <trkpt lat="42.60672" lon="1.46422">
        <ele>2834</ele>
        <time>2017-05-20T09:02:15.756Z</time>
      </trkpt>
      <trkpt lat="42.60674" lon="1.46411">
        <ele>2834</ele>
        <time>2017-05-20T09:04:03.759Z</time>
      </trkpt>
      <trkpt lat="42.60666" lon="1.46418">
        <ele>2834</ele>
        <time>2017-05-20T09:09:58.751Z</time>
      </trkpt>
      <trkpt lat="42.60674" lon="1.46409">
        <ele>2834</ele>
        <time>2017-05-20T09:10:24.761Z</time>
      </trkpt>
      <trkpt lat="42.60666" lon="1.4642">
        <ele>2834</ele>
        <time>2017-05-20T09:11:52.754Z</time>
      </trkpt>
      <trkpt lat="42.60674" lon="1.46429">
        <ele>2834</ele>
        <time>2017-05-20T09:13:14.759Z</time>
      </trkpt>
      <trkpt lat="42.60666" lon="1.4644">
        <ele>2834</ele>
        <time>2017-05-20T09:13:54.753Z</time>
      </trkpt>
      <trkpt lat="42.60674" lon="1.4645">
        <ele>2834</ele>
        <time>2017-05-20T09:14:50.755Z</time>
      </trkpt>
      <trkpt lat="42.60679" lon="1.46464">
        <ele>2834</ele>
        <time>2017-05-20T09:15:02.759Z</time>
      </trkpt>
      <trkpt lat="42.6068" lon="1.46481">
        <ele>2834</ele>
        <time>2017-05-20T09:15:10.759Z</time>
      </trkpt>
      <trkpt lat="42.60682" lon="1.46495">
        <ele>2834</ele>
        <time>2017-05-20T09:15:22.754Z</time>
      </trkpt>
      <trkpt lat="42.60681" lon="1.46511">
        <ele>2817.1</ele>
        <time>2017-05-20T09:15:42.760Z</time>
      </trkpt>
      <trkpt lat="42.60679" lon="1.46525">
        <ele>2810.7</ele>
        <time>2017-05-20T09:16:06.760Z</time>
      </trkpt>
      <trkpt lat="42.60674" lon="1.46539">
        <ele>2806</ele>
        <time>2017-05-20T09:16:34.762Z</time>
      </trkpt>
      <trkpt lat="42.60669" lon="1.46549">
        <ele>2803.5</ele>
        <time>2017-05-20T09:17:22.757Z</time>
      </trkpt>
      <trkpt lat="42.60669" lon="1.46567">
        <ele>2798.5</ele>
        <time>2017-05-20T09:17:34.756Z</time>
      </trkpt>
      <trkpt lat="42.60668" lon="1.46587">
        <ele>2793.3</ele>
        <time>2017-05-20T09:17:46.752Z</time>
      </trkpt>
      <trkpt lat="42.60676" lon="1.466">
        <ele>2786.7</ele>
        <time>2017-05-20T09:18:14.759Z</time>
      </trkpt>
      <trkpt lat="42.60671" lon="1.46611">
        <ele>2784.1</ele>
        <time>2017-05-20T09:19:22.755Z</time>
      </trkpt>
      <trkpt lat="42.60664" lon="1.46618">
        <ele>2779.6</ele>
        <time>2017-05-20T09:19:58.765Z</time>
      </trkpt>
      <trkpt lat="42.60661" lon="1.46631">
        <ele>2771.5</ele>
        <time>2017-05-20T09:20:14.769Z</time>
      </trkpt>
      <trkpt lat="42.60653" lon="1.4664">
        <ele>2762.4</ele>
        <time>2017-05-20T09:20:26.757Z</time>
      </trkpt>
      <trkpt lat="42.60655" lon="1.46651">
        <ele>2761</ele>
        <time>2017-05-20T09:20:34.763Z</time>
      </trkpt>
      <trkpt lat="42.60654" lon="1.46669">
        <ele>2755.3</ele>
        <time>2017-05-20T09:20:54.762Z</time>
      </trkpt>
      <trkpt lat="42.60663" lon="1.46674">
        <ele>2758.4</ele>
        <time>2017-05-20T09:21:58.761Z</time>
      </trkpt>
      <trkpt lat="42.60663" lon="1.46689">
        <ele>2750</ele>
        <time>2017-05-20T09:22:46.761Z</time>
      </trkpt>
      <trkpt lat="42.60659" lon="1.46705">
        <ele>2739.3</ele>
        <time>2017-05-20T09:23:02.760Z</time>
      </trkpt>
      <trkpt lat="42.6065" lon="1.46704">
        <ele>2739.3</ele>
        <time>2017-05-20T09:23:26.766Z</time>
      </trkpt>
      <trkpt lat="42.60644" lon="1.46721">
        <ele>2734.5</ele>
        <time>2017-05-20T09:25:02.757Z</time>
      </trkpt>
      <trkpt lat="42.60639" lon="1.46737">
        <ele>2734.4</ele>
        <time>2017-05-20T09:25:18.758Z</time>
      </trkpt>
      <trkpt lat="42.60637" lon="1.46748">
        <ele>2731.6</ele>
        <time>2017-05-20T09:25:34.871Z</time>
      </trkpt>
      <trkpt lat="42.6065" lon="1.46744">
        <ele>2730.3</ele>
        <time>2017-05-20T09:27:22.756Z</time>
      </trkpt>
      <trkpt lat="42.60658" lon="1.46742">
        <ele>2728</ele>
        <time>2017-05-20T09:27:52.757Z</time>
      </trkpt>
      <trkpt lat="42.60668" lon="1.46737">
        <ele>2724.5</ele>
        <time>2017-05-20T09:27:59.760Z</time>
      </trkpt>
      <trkpt lat="42.60675" lon="1.46725">
        <ele>2720.8</ele>
        <time>2017-05-20T09:28:08.754Z</time>
      </trkpt>
      <trkpt lat="42.60687" lon="1.46727">
        <ele>2713</ele>
        <time>2017-05-20T09:28:18.758Z</time>
      </trkpt>
      <trkpt lat="42.60696" lon="1.46734">
        <ele>2705.1</ele>
        <time>2017-05-20T09:28:30.759Z</time>
      </trkpt>
      <trkpt lat="42.60706" lon="1.46739">
        <ele>2698.9</ele>
        <time>2017-05-20T09:28:47.767Z</time>
      </trkpt>
      <trkpt lat="42.60717" lon="1.46746">
        <ele>2691.1</ele>
        <time>2017-05-20T09:28:53.755Z</time>
      </trkpt>
      <trkpt lat="42.60726" lon="1.46753">
        <ele>2684.6</ele>
        <time>2017-05-20T09:28:59.755Z</time>
      </trkpt>
      <trkpt lat="42.60733" lon="1.46762">
        <ele>2679.7</ele>
        <time>2017-05-20T09:29:04.760Z</time>
      </trkpt>
      <trkpt lat="42.6074" lon="1.46772">
        <ele>2674.8</ele>
        <time>2017-05-20T09:29:11.766Z</time>
      </trkpt>
      <trkpt lat="42.60752" lon="1.46779">
        <ele>2669.2</ele>
        <time>2017-05-20T09:29:16.761Z</time>
      </trkpt>
      <trkpt lat="42.60762" lon="1.46784">
        <ele>2665.2</ele>
        <time>2017-05-20T09:29:22.762Z</time>
      </trkpt>
      <trkpt lat="42.60773" lon="1.46793">
        <ele>2661</ele>
        <time>2017-05-20T09:29:27.760Z</time>
      </trkpt>
      <trkpt lat="42.60781" lon="1.46804">
        <ele>2657.7</ele>
        <time>2017-05-20T09:29:32.759Z</time>
      </trkpt>
      <trkpt lat="42.60783" lon="1.46817">
        <ele>2660.7</ele>
        <time>2017-05-20T09:29:51.762Z</time>
      </trkpt>
      <trkpt lat="42.60794" lon="1.46818">
        <ele>2654</ele>
        <time>2017-05-20T09:30:08.760Z</time>
      </trkpt>
      <trkpt lat="42.60803" lon="1.46814">
        <ele>2646.7</ele>
        <time>2017-05-20T09:30:17.760Z</time>
      </trkpt>
      <trkpt lat="42.60809" lon="1.46814">
        <ele>2643.3</ele>
        <time>2017-05-20T09:30:32.760Z</time>
      </trkpt>
      <trkpt lat="42.60815" lon="1.46812">
        <ele>2639.6</ele>
        <time>2017-05-20T09:30:48.760Z</time>
      </trkpt>
      <trkpt lat="42.60822" lon="1.46812">
        <ele>2636</ele>
        <time>2017-05-20T09:30:53.760Z</time>
      </trkpt>
      <trkpt lat="42.60829" lon="1.46812">
        <ele>2632.5</ele>
        <time>2017-05-20T09:30:58.760Z</time>
      </trkpt>
      <trkpt lat="42.6084" lon="1.46812">
        <ele>2627.3</ele>
        <time>2017-05-20T09:31:06.760Z</time>
      </trkpt>
      <trkpt lat="42.60855" lon="1.46806">
        <ele>2618.8</ele>
        <time>2017-05-20T09:31:19.761Z</time>
      </trkpt>
      <trkpt lat="42.60866" lon="1.46803">
        <ele>2614.3</ele>
        <time>2017-05-20T09:31:27.759Z</time>
      </trkpt>
      <trkpt lat="42.60877" lon="1.468">
        <ele>2610.5</ele>
        <time>2017-05-20T09:31:34.764Z</time>
      </trkpt>
      <trkpt lat="42.60892" lon="1.46805">
        <ele>2604.8</ele>
        <time>2017-05-20T09:31:44.760Z</time>
      </trkpt>
      <trkpt lat="42.60905" lon="1.46801">
        <ele>2599.9</ele>
        <time>2017-05-20T09:31:57.760Z</time>
      </trkpt>
      <trkpt lat="42.60911" lon="1.46791">
        <ele>2597.9</ele>
        <time>2017-05-20T09:32:07.760Z</time>
      </trkpt>
      <trkpt lat="42.60921" lon="1.46785">
        <ele>2559</ele>
        <time>2017-05-20T09:32:21.759Z</time>
      </trkpt>
      <trkpt lat="42.60931" lon="1.46782">
        <ele>2559</ele>
        <time>2017-05-20T09:32:27.762Z</time>
      </trkpt>
      <trkpt lat="42.60943" lon="1.46785">
        <ele>2559</ele>
        <time>2017-05-20T09:32:33.757Z</time>
      </trkpt>
      <trkpt lat="42.60954" lon="1.46791">
        <ele>2559</ele>
        <time>2017-05-20T09:32:55.769Z</time>
      </trkpt>
      <trkpt lat="42.60967" lon="1.46792">
        <ele>2559</ele>
        <time>2017-05-20T09:33:01.758Z</time>
      </trkpt>
      <trkpt lat="42.60977" lon="1.46793">
        <ele>2559</ele>
        <time>2017-05-20T09:33:07.754Z</time>
      </trkpt>
      <trkpt lat="42.60988" lon="1.46786">
        <ele>2559</ele>
        <time>2017-05-20T09:33:15.756Z</time>
      </trkpt>
      <trkpt lat="42.60998" lon="1.46784">
        <ele>2559</ele>
        <time>2017-05-20T09:33:23.760Z</time>
      </trkpt>
      <trkpt lat="42.61008" lon="1.46776">
        <ele>2542</ele>
        <time>2017-05-20T09:33:35.760Z</time>
      </trkpt>
      <trkpt lat="42.61017" lon="1.46768">
        <ele>2542</ele>
        <time>2017-05-20T09:33:43.761Z</time>
      </trkpt>
      <trkpt lat="42.61026" lon="1.46761">
        <ele>2539</ele>
        <time>2017-05-20T09:33:51.757Z</time>
      </trkpt>
      <trkpt lat="42.61037" lon="1.46754">
        <ele>2535</ele>
        <time>2017-05-20T09:33:58.758Z</time>
      </trkpt>
      <trkpt lat="42.61048" lon="1.46753">
        <ele>2530</ele>
        <time>2017-05-20T09:34:05.754Z</time>
      </trkpt>
      <trkpt lat="42.61058" lon="1.46747">
        <ele>2528</ele>
        <time>2017-05-20T09:34:16.757Z</time>
      </trkpt>
      <trkpt lat="42.61068" lon="1.46742">
        <ele>2524</ele>
        <time>2017-05-20T09:34:24.755Z</time>
      </trkpt>
      <trkpt lat="42.61077" lon="1.46732">
        <ele>2524</ele>
        <time>2017-05-20T09:34:30.761Z</time>
      </trkpt>
      <trkpt lat="42.61084" lon="1.46722">
        <ele>2505</ele>
        <time>2017-05-20T09:34:39.760Z</time>
      </trkpt>
      <trkpt lat="42.61096" lon="1.46721">
        <ele>2503</ele>
        <time>2017-05-20T09:34:55.756Z</time>
      </trkpt>
      <trkpt lat="42.61106" lon="1.46719">
        <ele>2501</ele>
        <time>2017-05-20T09:35:00.754Z</time>
      </trkpt>
      <trkpt lat="42.61117" lon="1.46717">
        <ele>2498</ele>
        <time>2017-05-20T09:35:15.758Z</time>
      </trkpt>
      <trkpt lat="42.61127" lon="1.46713">
        <ele>2495</ele>
        <time>2017-05-20T09:35:27.753Z</time>
      </trkpt>
      <trkpt lat="42.61138" lon="1.46713">
        <ele>2492</ele>
        <time>2017-05-20T09:35:34.756Z</time>
      </trkpt>
      <trkpt lat="42.61147" lon="1.4672">
        <ele>2487</ele>
        <time>2017-05-20T09:35:43.759Z</time>
      </trkpt>
      <trkpt lat="42.61155" lon="1.46729">
        <ele>2481</ele>
        <time>2017-05-20T09:35:54.760Z</time>
      </trkpt>
      <trkpt lat="42.61164" lon="1.46734">
        <ele>2476</ele>
        <time>2017-05-20T09:36:06.752Z</time>
      </trkpt>
      <trkpt lat="42.61164" lon="1.46747">
        <ele>2463</ele>
        <time>2017-05-20T09:36:32.754Z</time>
      </trkpt>
      <trkpt lat="42.61169" lon="1.46759">
        <ele>2455</ele>
        <time>2017-05-20T09:36:50.767Z</time>
      </trkpt>
      <trkpt lat="42.61178" lon="1.46769">
        <ele>2453</ele>
        <time>2017-05-20T09:36:55.762Z</time>
      </trkpt>
      <trkpt lat="42.61187" lon="1.46775">
        <ele>2452</ele>
        <time>2017-05-20T09:37:00.762Z</time>
      </trkpt>
      <trkpt lat="42.61197" lon="1.46774">
        <ele>2452</ele>
        <time>2017-05-20T09:37:08.869Z</time>
      </trkpt>
      <trkpt lat="42.61221" lon="1.46786">
        <ele>2450</ele>
        <time>2017-05-20T09:37:22.760Z</time>
      </trkpt>
      <trkpt lat="42.61227" lon="1.46799">
        <ele>2449</ele>
        <time>2017-05-20T09:37:29.759Z</time>
      </trkpt>
      <trkpt lat="42.61238" lon="1.46799">
        <ele>2448</ele>
        <time>2017-05-20T09:37:49.760Z</time>
      </trkpt>
      <trkpt lat="42.6125" lon="1.46795">
        <ele>2448</ele>
        <time>2017-05-20T09:38:11.754Z</time>
      </trkpt>
      <trkpt lat="42.61261" lon="1.46798">
        <ele>2442</ele>
        <time>2017-05-20T09:38:20.754Z</time>
      </trkpt>
      <trkpt lat="42.61271" lon="1.46799">
        <ele>2442</ele>
        <time>2017-05-20T09:38:39.760Z</time>
      </trkpt>
      <trkpt lat="42.61281" lon="1.46801">
        <ele>2442</ele>
        <time>2017-05-20T09:38:45.757Z</time>
      </trkpt>
      <trkpt lat="42.61292" lon="1.46802">
        <ele>2441</ele>
        <time>2017-05-20T09:38:54.759Z</time>
      </trkpt>
      <trkpt lat="42.61302" lon="1.46803">
        <ele>2441</ele>
        <time>2017-05-20T09:39:07.755Z</time>
      </trkpt>
      <trkpt lat="42.61312" lon="1.468">
        <ele>2441</ele>
        <time>2017-05-20T09:39:15.758Z</time>
      </trkpt>
      <trkpt lat="42.61317" lon="1.46787">
        <ele>2441</ele>
        <time>2017-05-20T09:39:34.762Z</time>
      </trkpt>
      <trkpt lat="42.61327" lon="1.46792">
        <ele>2441</ele>
        <time>2017-05-20T09:39:40.754Z</time>
      </trkpt>
      <trkpt lat="42.61336" lon="1.46799">
        <ele>2431</ele>
        <time>2017-05-20T09:39:59.751Z</time>
      </trkpt>
      <trkpt lat="42.61354" lon="1.46786">
        <ele>2429</ele>
        <time>2017-05-20T09:40:14.763Z</time>
      </trkpt>
      <trkpt lat="42.61352" lon="1.46772">
        <ele>2430</ele>
        <time>2017-05-20T09:40:29.761Z</time>
      </trkpt>
      <trkpt lat="42.61362" lon="1.46775">
        <ele>2428</ele>
        <time>2017-05-20T09:41:15.760Z</time>
      </trkpt>
      <trkpt lat="42.61373" lon="1.46781">
        <ele>2426</ele>
        <time>2017-05-20T09:41:26.760Z</time>
      </trkpt>
      <trkpt lat="42.6138" lon="1.46786">
        <ele>2425</ele>
        <time>2017-05-20T09:41:32.760Z</time>
      </trkpt>
      <trkpt lat="42.61394" lon="1.46796">
        <ele>2423</ele>
        <time>2017-05-20T09:41:54.757Z</time>
      </trkpt>
      <trkpt lat="42.6141" lon="1.46794">
        <ele>2422</ele>
        <time>2017-05-20T09:42:05.760Z</time>
      </trkpt>
      <trkpt lat="42.6142" lon="1.46802">
        <ele>2402</ele>
        <time>2017-05-20T09:42:14.757Z</time>
      </trkpt>
      <trkpt lat="42.61431" lon="1.46799">
        <ele>2400</ele>
        <time>2017-05-20T09:42:44.759Z</time>
      </trkpt>
      <trkpt lat="42.61439" lon="1.46806">
        <ele>2400</ele>
        <time>2017-05-20T09:43:10.764Z</time>
      </trkpt>
      <trkpt lat="42.61449" lon="1.46812">
        <ele>2398</ele>
        <time>2017-05-20T09:43:29.756Z</time>
      </trkpt>
      <trkpt lat="42.61458" lon="1.46807">
        <ele>2395</ele>
        <time>2017-05-20T09:43:47.765Z</time>
      </trkpt>
      <trkpt lat="42.61459" lon="1.46793">
        <ele>2394</ele>
        <time>2017-05-20T09:44:13.760Z</time>
      </trkpt>
      <trkpt lat="42.61467" lon="1.46781">
        <ele>2391</ele>
        <time>2017-05-20T09:44:35.760Z</time>
      </trkpt>
      <trkpt lat="42.61474" lon="1.46772">
        <ele>2388</ele>
        <time>2017-05-20T09:44:53.765Z</time>
      </trkpt>
      <trkpt lat="42.61484" lon="1.46767">
        <ele>2383</ele>
        <time>2017-05-20T09:45:05.758Z</time>
      </trkpt>
      <trkpt lat="42.61492" lon="1.46757">
        <ele>2376</ele>
        <time>2017-05-20T09:45:37.755Z</time>
      </trkpt>
      <trkpt lat="42.6151" lon="1.46746">
        <ele>2359</ele>
        <time>2017-05-20T09:45:50.764Z</time>
      </trkpt>
      <trkpt lat="42.61519" lon="1.46747">
        <ele>2355</ele>
        <time>2017-05-20T09:45:57.763Z</time>
      </trkpt>
      <trkpt lat="42.61528" lon="1.46741">
        <ele>2352</ele>
        <time>2017-05-20T09:46:11.755Z</time>
      </trkpt>
      <trkpt lat="42.61538" lon="1.46736">
        <ele>2349</ele>
        <time>2017-05-20T09:46:20.759Z</time>
      </trkpt>
      <trkpt lat="42.61549" lon="1.46729">
        <ele>2346</ele>
        <time>2017-05-20T09:46:29.764Z</time>
      </trkpt>
      <trkpt lat="42.61558" lon="1.46721">
        <ele>2345</ele>
        <time>2017-05-20T09:46:37.760Z</time>
      </trkpt>
      <trkpt lat="42.61566" lon="1.46711">
        <ele>2343</ele>
        <time>2017-05-20T09:46:52.757Z</time>
      </trkpt>
      <trkpt lat="42.61576" lon="1.46709">
        <ele>2342</ele>
        <time>2017-05-20T09:47:03.753Z</time>
      </trkpt>
      <trkpt lat="42.61587" lon="1.46702">
        <ele>2331</ele>
        <time>2017-05-20T09:47:11.760Z</time>
      </trkpt>
      <trkpt lat="42.61606" lon="1.46689">
        <ele>2329</ele>
        <time>2017-05-20T09:47:22.760Z</time>
      </trkpt>
      <trkpt lat="42.61616" lon="1.46684">
        <ele>2329</ele>
        <time>2017-05-20T09:47:32.755Z</time>
      </trkpt>
      <trkpt lat="42.61624" lon="1.46677">
        <ele>2327</ele>
        <time>2017-05-20T09:47:49.765Z</time>
      </trkpt>
      <trkpt lat="42.61629" lon="1.46664">
        <ele>2324</ele>
        <time>2017-05-20T09:48:06.759Z</time>
      </trkpt>
      <trkpt lat="42.61637" lon="1.46655">
        <ele>2323</ele>
        <time>2017-05-20T09:48:11.755Z</time>
      </trkpt>
      <trkpt lat="42.6165" lon="1.46653">
        <ele>2321</ele>
        <time>2017-05-20T09:48:33.760Z</time>
      </trkpt>
      <trkpt lat="42.61662" lon="1.46649">
        <ele>2321</ele>
        <time>2017-05-20T09:48:39.760Z</time>
      </trkpt>
      <trkpt lat="42.61672" lon="1.46645">
        <ele>2313</ele>
        <time>2017-05-20T09:48:58.759Z</time>
      </trkpt>
      <trkpt lat="42.61679" lon="1.46657">
        <ele>2313</ele>
        <time>2017-05-20T09:49:10.758Z</time>
      </trkpt>
      <trkpt lat="42.61685" lon="1.4667">
        <ele>2317</ele>
        <time>2017-05-20T09:49:18.766Z</time>
      </trkpt>
      <trkpt lat="42.61692" lon="1.4668">
        <ele>2316</ele>
        <time>2017-05-20T09:49:36.760Z</time>
      </trkpt>
      <trkpt lat="42.61714" lon="1.46681">
        <ele>2315</ele>
        <time>2017-05-20T09:49:50.760Z</time>
      </trkpt>
      <trkpt lat="42.61723" lon="1.46684">
        <ele>2314</ele>
        <time>2017-05-20T09:49:56.761Z</time>
      </trkpt>
      <trkpt lat="42.61733" lon="1.46686">
        <ele>2313</ele>
        <time>2017-05-20T09:50:06.760Z</time>
      </trkpt>
      <trkpt lat="42.61742" lon="1.46679">
        <ele>2311</ele>
        <time>2017-05-20T09:50:20.766Z</time>
      </trkpt>
      <trkpt lat="42.61744" lon="1.46665">
        <ele>2307</ele>
        <time>2017-05-20T09:50:59.760Z</time>
      </trkpt>
      <trkpt lat="42.61748" lon="1.46652">
        <ele>2307</ele>
        <time>2017-05-20T09:51:18.760Z</time>
      </trkpt>
      <trkpt lat="42.61754" lon="1.46641">
        <ele>2295</ele>
        <time>2017-05-20T09:52:21.754Z</time>
      </trkpt>
      <trkpt lat="42.61747" lon="1.46651">
        <ele>2307</ele>
        <time>2017-05-20T09:52:47.755Z</time>
      </trkpt>
      <trkpt lat="42.61746" lon="1.4664">
        <ele>2307</ele>
        <time>2017-05-20T09:53:37.763Z</time>
      </trkpt>
      <trkpt lat="42.61745" lon="1.46626">
        <ele>2306</ele>
        <time>2017-05-20T09:53:53.760Z</time>
      </trkpt>
      <trkpt lat="42.61746" lon="1.46612">
        <ele>2304</ele>
        <time>2017-05-20T09:54:06.761Z</time>
      </trkpt>
      <trkpt lat="42.61753" lon="1.46602">
        <ele>2292</ele>
        <time>2017-05-20T09:54:16.761Z</time>
      </trkpt>
      <trkpt lat="42.61762" lon="1.46595">
        <ele>2291</ele>
        <time>2017-05-20T09:54:23.754Z</time>
      </trkpt>
      <trkpt lat="42.6177" lon="1.46583">
        <ele>2289</ele>
        <time>2017-05-20T09:54:42.762Z</time>
      </trkpt>
      <trkpt lat="42.61779" lon="1.46573">
        <ele>2279</ele>
        <time>2017-05-20T09:54:48.756Z</time>
      </trkpt>
      <trkpt lat="42.61772" lon="1.46561">
        <ele>2279</ele>
        <time>2017-05-20T09:55:02.760Z</time>
      </trkpt>
      <trkpt lat="42.61772" lon="1.46547">
        <ele>2277</ele>
        <time>2017-05-20T09:55:08.760Z</time>
      </trkpt>
      <trkpt lat="42.61779" lon="1.46536">
        <ele>2275</ele>
        <time>2017-05-20T09:55:20.756Z</time>
      </trkpt>
      <trkpt lat="42.61791" lon="1.46531">
        <ele>2272</ele>
        <time>2017-05-20T09:55:32.760Z</time>
      </trkpt>
      <trkpt lat="42.61801" lon="1.46525">
        <ele>2269</ele>
        <time>2017-05-20T09:56:02.763Z</time>
      </trkpt>
      <trkpt lat="42.61811" lon="1.46531">
        <ele>2268</ele>
        <time>2017-05-20T09:56:15.760Z</time>
      </trkpt>
      <trkpt lat="42.6182" lon="1.46539">
        <ele>2267</ele>
        <time>2017-05-20T09:56:23.760Z</time>
      </trkpt>
      <trkpt lat="42.61839" lon="1.46546">
        <ele>2246</ele>
        <time>2017-05-20T09:56:35.760Z</time>
      </trkpt>
      <trkpt lat="42.61844" lon="1.46559">
        <ele>2248</ele>
        <time>2017-05-20T09:56:41.765Z</time>
      </trkpt>
      <trkpt lat="42.61848" lon="1.4657">
        <ele>2250</ele>
        <time>2017-05-20T09:56:52.752Z</time>
      </trkpt>
      <trkpt lat="42.61857" lon="1.46564">
        <ele>2246</ele>
        <time>2017-05-20T09:56:58.769Z</time>
      </trkpt>
      <trkpt lat="42.61867" lon="1.46561">
        <ele>2243</ele>
        <time>2017-05-20T09:57:07.760Z</time>
      </trkpt>
      <trkpt lat="42.61877" lon="1.46554">
        <ele>2240</ele>
        <time>2017-05-20T09:57:15.759Z</time>
      </trkpt>
      <trkpt lat="42.61886" lon="1.46557">
        <ele>2238</ele>
        <time>2017-05-20T09:57:35.762Z</time>
      </trkpt>
      <trkpt lat="42.61895" lon="1.46548">
        <ele>2236</ele>
        <time>2017-05-20T09:57:44.753Z</time>
      </trkpt>
      <trkpt lat="42.61916" lon="1.46545">
        <ele>2234</ele>
        <time>2017-05-20T09:57:55.757Z</time>
      </trkpt>
      <trkpt lat="42.61926" lon="1.46542">
        <ele>2220</ele>
        <time>2017-05-20T09:58:05.756Z</time>
      </trkpt>
      <trkpt lat="42.61938" lon="1.46537">
        <ele>2220</ele>
        <time>2017-05-20T09:58:14.760Z</time>
      </trkpt>
      <trkpt lat="42.61945" lon="1.46525">
        <ele>2219</ele>
        <time>2017-05-20T09:58:22.758Z</time>
      </trkpt>
      <trkpt lat="42.61954" lon="1.46518">
        <ele>2218</ele>
        <time>2017-05-20T09:58:28.760Z</time>
      </trkpt>
      <trkpt lat="42.61958" lon="1.46504">
        <ele>2218</ele>
        <time>2017-05-20T09:58:37.764Z</time>
      </trkpt>
      <trkpt lat="42.61966" lon="1.46493">
        <ele>2216</ele>
        <time>2017-05-20T09:58:44.760Z</time>
      </trkpt>
      <trkpt lat="42.61978" lon="1.46489">
        <ele>2215</ele>
        <time>2017-05-20T09:58:51.760Z</time>
      </trkpt>
      <trkpt lat="42.61989" lon="1.46493">
        <ele>2213</ele>
        <time>2017-05-20T09:59:06.760Z</time>
      </trkpt>
      <trkpt lat="42.61999" lon="1.46491">
        <ele>2213</ele>
        <time>2017-05-20T09:59:14.760Z</time>
      </trkpt>
      <trkpt lat="42.62009" lon="1.46489">
        <ele>2208</ele>
        <time>2017-05-20T09:59:23.760Z</time>
      </trkpt>
      <trkpt lat="42.6202" lon="1.46485">
        <ele>2207</ele>
        <time>2017-05-20T09:59:31.760Z</time>
      </trkpt>
      <trkpt lat="42.6203" lon="1.46482">
        <ele>2206</ele>
        <time>2017-05-20T09:59:38.760Z</time>
      </trkpt>
      <trkpt lat="42.6204" lon="1.46477">
        <ele>2205</ele>
        <time>2017-05-20T09:59:47.760Z</time>
      </trkpt>
      <trkpt lat="42.6205" lon="1.46473">
        <ele>2204</ele>
        <time>2017-05-20T09:59:57.760Z</time>
      </trkpt>
      <trkpt lat="42.62056" lon="1.46462">
        <ele>2203</ele>
        <time>2017-05-20T10:00:12.760Z</time>
      </trkpt>
      <trkpt lat="42.62064" lon="1.46453">
        <ele>2201</ele>
        <time>2017-05-20T10:00:22.760Z</time>
      </trkpt>
      <trkpt lat="42.62073" lon="1.46444">
        <ele>2199</ele>
        <time>2017-05-20T10:00:31.760Z</time>
      </trkpt>
      <trkpt lat="42.62075" lon="1.46431">
        <ele>2195</ele>
        <time>2017-05-20T10:00:42.760Z</time>
      </trkpt>
      <trkpt lat="42.62078" lon="1.46417">
        <ele>2191</ele>
        <time>2017-05-20T10:00:51.760Z</time>
      </trkpt>
      <trkpt lat="42.62082" lon="1.4641">
        <ele>2190</ele>
        <time>2017-05-20T10:01:07.760Z</time>
      </trkpt>
      <trkpt lat="42.62088" lon="1.464">
        <ele>2186</ele>
        <time>2017-05-20T10:01:15.760Z</time>
      </trkpt>
      <trkpt lat="42.62089" lon="1.4639">
        <ele>2185</ele>
        <time>2017-05-20T10:01:21.760Z</time>
      </trkpt>
      <trkpt lat="42.62093" lon="1.46382">
        <ele>2185</ele>
        <time>2017-05-20T10:01:28.760Z</time>
      </trkpt>
      <trkpt lat="42.62097" lon="1.46372">
        <ele>2184</ele>
        <time>2017-05-20T10:01:35.760Z</time>
      </trkpt>
      <trkpt lat="42.621" lon="1.46364">
        <ele>2183</ele>
        <time>2017-05-20T10:01:40.760Z</time>
      </trkpt>
      <trkpt lat="42.62104" lon="1.46356">
        <ele>2183</ele>
        <time>2017-05-20T10:01:46.760Z</time>
      </trkpt>
      <trkpt lat="42.62109" lon="1.4635">
        <ele>2183</ele>
        <time>2017-05-20T10:01:52.760Z</time>
      </trkpt>
      <trkpt lat="42.62113" lon="1.46342">
        <ele>2182</ele>
        <time>2017-05-20T10:01:59.760Z</time>
      </trkpt>
      <trkpt lat="42.62115" lon="1.46334">
        <ele>2182</ele>
        <time>2017-05-20T10:02:05.760Z</time>
      </trkpt>
      <trkpt lat="42.62121" lon="1.46328">
        <ele>2173</ele>
        <time>2017-05-20T10:02:13.760Z</time>
      </trkpt>
      <trkpt lat="42.62124" lon="1.4633">
        <ele>2173</ele>
        <time>2017-05-20T10:02:18.760Z</time>
      </trkpt>
      <trkpt lat="42.62131" lon="1.46331">
        <ele>2172</ele>
        <time>2017-05-20T10:02:24.760Z</time>
      </trkpt>
      <trkpt lat="42.62139" lon="1.46328">
        <ele>2172</ele>
        <time>2017-05-20T10:02:32.760Z</time>
      </trkpt>
      <trkpt lat="42.62147" lon="1.46318">
        <ele>2171</ele>
        <time>2017-05-20T10:02:43.760Z</time>
      </trkpt>
      <trkpt lat="42.62155" lon="1.46308">
        <ele>2171</ele>
        <time>2017-05-20T10:02:52.760Z</time>
      </trkpt>
      <trkpt lat="42.62156" lon="1.46294">
        <ele>2169</ele>
        <time>2017-05-20T10:03:02.757Z</time>
      </trkpt>
      <trkpt lat="42.62159" lon="1.46281">
        <ele>2167</ele>
        <time>2017-05-20T10:03:09.762Z</time>
      </trkpt>
      <trkpt lat="42.62165" lon="1.46267">
        <ele>2164</ele>
        <time>2017-05-20T10:03:17.761Z</time>
      </trkpt>
      <trkpt lat="42.62175" lon="1.46262">
        <ele>2164</ele>
        <time>2017-05-20T10:03:33.757Z</time>
      </trkpt>
      <trkpt lat="42.62185" lon="1.46249">
        <ele>2156</ele>
        <time>2017-05-20T10:03:45.755Z</time>
      </trkpt>
      <trkpt lat="42.62193" lon="1.46239">
        <ele>2156</ele>
        <time>2017-05-20T10:03:53.759Z</time>
      </trkpt>
      <trkpt lat="42.62197" lon="1.46226">
        <ele>2155</ele>
        <time>2017-05-20T10:04:01.753Z</time>
      </trkpt>
      <trkpt lat="42.62206" lon="1.46221">
        <ele>2155</ele>
        <time>2017-05-20T10:04:13.756Z</time>
      </trkpt>
      <trkpt lat="42.62205" lon="1.46206">
        <ele>2153</ele>
        <time>2017-05-20T10:04:25.757Z</time>
      </trkpt>
      <trkpt lat="42.62201" lon="1.46185">
        <ele>2151</ele>
        <time>2017-05-20T10:04:41.757Z</time>
      </trkpt>
      <trkpt lat="42.62199" lon="1.46168">
        <ele>2150</ele>
        <time>2017-05-20T10:04:57.757Z</time>
      </trkpt>
      <trkpt lat="42.6219" lon="1.46154">
        <ele>2142</ele>
        <time>2017-05-20T10:05:05.763Z</time>
      </trkpt>
      <trkpt lat="42.62194" lon="1.46141">
        <ele>2142</ele>
        <time>2017-05-20T10:05:13.754Z</time>
      </trkpt>
      <trkpt lat="42.62199" lon="1.46123">
        <ele>2141</ele>
        <time>2017-05-20T10:05:25.760Z</time>
      </trkpt>
      <trkpt lat="42.62212" lon="1.46115">
        <ele>2141</ele>
        <time>2017-05-20T10:05:33.759Z</time>
      </trkpt>
      <trkpt lat="42.62218" lon="1.46095">
        <ele>2140</ele>
        <time>2017-05-20T10:05:45.758Z</time>
      </trkpt>
      <trkpt lat="42.62227" lon="1.46081">
        <ele>2136</ele>
        <time>2017-05-20T10:05:57.761Z</time>
      </trkpt>
      <trkpt lat="42.62226" lon="1.46065">
        <ele>2136</ele>
        <time>2017-05-20T10:06:13.761Z</time>
      </trkpt>
      <trkpt lat="42.62228" lon="1.46047">
        <ele>2135</ele>
        <time>2017-05-20T10:06:25.755Z</time>
      </trkpt>
      <trkpt lat="42.62234" lon="1.46032">
        <ele>2134</ele>
        <time>2017-05-20T10:06:37.763Z</time>
      </trkpt>
      <trkpt lat="42.62241" lon="1.46018">
        <ele>2132</ele>
        <time>2017-05-20T10:06:53.761Z</time>
      </trkpt>
      <trkpt lat="42.62246" lon="1.46005">
        <ele>2128</ele>
        <time>2017-05-20T10:07:05.767Z</time>
      </trkpt>
      <trkpt lat="42.62247" lon="1.45992">
        <ele>2127</ele>
        <time>2017-05-20T10:07:17.757Z</time>
      </trkpt>
      <trkpt lat="42.62254" lon="1.45981">
        <ele>2124</ele>
        <time>2017-05-20T10:07:25.753Z</time>
      </trkpt>
      <trkpt lat="42.62256" lon="1.45967">
        <ele>2123</ele>
        <time>2017-05-20T10:07:41.762Z</time>
      </trkpt>
      <trkpt lat="42.62259" lon="1.45954">
        <ele>2122</ele>
        <time>2017-05-20T10:07:57.752Z</time>
      </trkpt>
      <trkpt lat="42.62261" lon="1.4594">
        <ele>2121</ele>
        <time>2017-05-20T10:08:05.765Z</time>
      </trkpt>
      <trkpt lat="42.62252" lon="1.45934">
        <ele>2119</ele>
        <time>2017-05-20T10:08:33.756Z</time>
      </trkpt>
      <trkpt lat="42.6226" lon="1.45917">
        <ele>2118</ele>
        <time>2017-05-20T10:08:53.758Z</time>
      </trkpt>
      <trkpt lat="42.62265" lon="1.459">
        <ele>2114</ele>
        <time>2017-05-20T10:09:01.769Z</time>
      </trkpt>
      <trkpt lat="42.62267" lon="1.45883">
        <ele>2113</ele>
        <time>2017-05-20T10:09:09.766Z</time>
      </trkpt>
      <trkpt lat="42.62276" lon="1.45869">
        <ele>2112</ele>
        <time>2017-05-20T10:09:17.757Z</time>
      </trkpt>
      <trkpt lat="42.62282" lon="1.45854">
        <ele>2111</ele>
        <time>2017-05-20T10:09:25.759Z</time>
      </trkpt>
      <trkpt lat="42.6229" lon="1.45842">
        <ele>2111</ele>
        <time>2017-05-20T10:09:33.758Z</time>
      </trkpt>
      <trkpt lat="42.62295" lon="1.45828">
        <ele>2103</ele>
        <time>2017-05-20T10:09:41.762Z</time>
      </trkpt>
      <trkpt lat="42.62293" lon="1.45809">
        <ele>2102</ele>
        <time>2017-05-20T10:09:53.754Z</time>
      </trkpt>
      <trkpt lat="42.62297" lon="1.4579">
        <ele>2100</ele>
        <time>2017-05-20T10:10:05.761Z</time>
      </trkpt>
      <trkpt lat="42.62285" lon="1.45779">
        <ele>2100</ele>
        <time>2017-05-20T10:10:17.756Z</time>
      </trkpt>
      <trkpt lat="42.62277" lon="1.45768">
        <ele>2100</ele>
        <time>2017-05-20T10:10:25.762Z</time>
      </trkpt>
      <trkpt lat="42.62268" lon="1.45756">
        <ele>2099</ele>
        <time>2017-05-20T10:10:37.767Z</time>
      </trkpt>
      <trkpt lat="42.62258" lon="1.45735">
        <ele>2092</ele>
        <time>2017-05-20T10:10:45.764Z</time>
      </trkpt>
      <trkpt lat="42.62255" lon="1.45721">
        <ele>2089</ele>
        <time>2017-05-20T10:10:57.765Z</time>
      </trkpt>
      <trkpt lat="42.62248" lon="1.45711">
        <ele>2099</ele>
        <time>2017-05-20T10:11:05.759Z</time>
      </trkpt>
      <trkpt lat="42.62242" lon="1.45696">
        <ele>2097</ele>
        <time>2017-05-20T10:11:13.760Z</time>
      </trkpt>
      <trkpt lat="42.62238" lon="1.45683">
        <ele>2094</ele>
        <time>2017-05-20T10:11:21.760Z</time>
      </trkpt>
      <trkpt lat="42.62236" lon="1.45665">
        <ele>2085</ele>
        <time>2017-05-20T10:11:29.759Z</time>
      </trkpt>
      <trkpt lat="42.62235" lon="1.45642">
        <ele>2085</ele>
        <time>2017-05-20T10:11:41.765Z</time>
      </trkpt>
      <trkpt lat="42.62233" lon="1.4562">
        <ele>2083</ele>
        <time>2017-05-20T10:11:53.769Z</time>
      </trkpt>
      <trkpt lat="42.62227" lon="1.45604">
        <ele>2081</ele>
        <time>2017-05-20T10:12:01.761Z</time>
      </trkpt>
      <trkpt lat="42.62233" lon="1.45588">
        <ele>2078</ele>
        <time>2017-05-20T10:12:17.755Z</time>
      </trkpt>
      <trkpt lat="42.62221" lon="1.45586">
        <ele>2081</ele>
        <time>2017-05-20T10:13:01.761Z</time>
      </trkpt>
      <trkpt lat="42.62209" lon="1.45578">
        <ele>2068</ele>
        <time>2017-05-20T10:13:09.760Z</time>
      </trkpt>
      <trkpt lat="42.62197" lon="1.45574">
        <ele>2069</ele>
        <time>2017-05-20T10:13:17.759Z</time>
      </trkpt>
      <trkpt lat="42.62183" lon="1.45572">
        <ele>2073</ele>
        <time>2017-05-20T10:13:29.752Z</time>
      </trkpt>
      <trkpt lat="42.62174" lon="1.45565">
        <ele>2072</ele>
        <time>2017-05-20T10:13:37.760Z</time>
      </trkpt>
      <trkpt lat="42.62184" lon="1.45552">
        <ele>2067</ele>
        <time>2017-05-20T10:13:49.756Z</time>
      </trkpt>
      <trkpt lat="42.62198" lon="1.45545">
        <ele>2064</ele>
        <time>2017-05-20T10:13:57.753Z</time>
      </trkpt>
      <trkpt lat="42.62211" lon="1.45555">
        <ele>2065</ele>
        <time>2017-05-20T10:14:17.762Z</time>
      </trkpt>
      <trkpt lat="42.62229" lon="1.4557">
        <ele>2066</ele>
        <time>2017-05-20T10:14:29.766Z</time>
      </trkpt>
      <trkpt lat="42.62242" lon="1.45573">
        <ele>2067</ele>
        <time>2017-05-20T10:14:37.763Z</time>
      </trkpt>
      <trkpt lat="42.62254" lon="1.45583">
        <ele>2070</ele>
        <time>2017-05-20T10:14:49.764Z</time>
      </trkpt>
      <trkpt lat="42.62267" lon="1.45592">
        <ele>2070</ele>
        <time>2017-05-20T10:14:57.759Z</time>
      </trkpt>
      <trkpt lat="42.62281" lon="1.45598">
        <ele>2069</ele>
        <time>2017-05-20T10:15:09.762Z</time>
      </trkpt>
      <trkpt lat="42.62291" lon="1.4561">
        <ele>2069</ele>
        <time>2017-05-20T10:15:17.763Z</time>
      </trkpt>
      <trkpt lat="42.62303" lon="1.45613">
        <ele>2068</ele>
        <time>2017-05-20T10:15:25.760Z</time>
      </trkpt>
      <trkpt lat="42.62318" lon="1.45617">
        <ele>2067</ele>
        <time>2017-05-20T10:15:33.763Z</time>
      </trkpt>
      <trkpt lat="42.6233" lon="1.45616">
        <ele>2066</ele>
        <time>2017-05-20T10:15:53.753Z</time>
      </trkpt>
      <trkpt lat="42.62344" lon="1.45609">
        <ele>2056</ele>
        <time>2017-05-20T10:16:09.757Z</time>
      </trkpt>
      <trkpt lat="42.6235" lon="1.45597">
        <ele>2055</ele>
        <time>2017-05-20T10:16:17.759Z</time>
      </trkpt>
      <trkpt lat="42.62348" lon="1.45583">
        <ele>2046</ele>
        <time>2017-05-20T10:16:25.766Z</time>
      </trkpt>
      <trkpt lat="42.62359" lon="1.45574">
        <ele>2041</ele>
        <time>2017-05-20T10:16:37.761Z</time>
      </trkpt>
      <trkpt lat="42.62368" lon="1.45579">
        <ele>2039</ele>
        <time>2017-05-20T10:16:53.766Z</time>
      </trkpt>
      <trkpt lat="42.6238" lon="1.45585">
        <ele>2051</ele>
        <time>2017-05-20T10:17:09.760Z</time>
      </trkpt>
      <trkpt lat="42.62391" lon="1.45576">
        <ele>2036</ele>
        <time>2017-05-20T10:17:29.758Z</time>
      </trkpt>
      <trkpt lat="42.62392" lon="1.45559">
        <ele>2034</ele>
        <time>2017-05-20T10:17:44.755Z</time>
      </trkpt>
      <trkpt lat="42.62402" lon="1.45556">
        <ele>2033</ele>
        <time>2017-05-20T10:18:04.752Z</time>
      </trkpt>
      <trkpt lat="42.62412" lon="1.45551">
        <ele>2032</ele>
        <time>2017-05-20T10:18:11.757Z</time>
      </trkpt>
      <trkpt lat="42.62411" lon="1.45537">
        <ele>2029</ele>
        <time>2017-05-20T10:18:24.768Z</time>
      </trkpt>
      <trkpt lat="42.62405" lon="1.45524">
        <ele>2027</ele>
        <time>2017-05-20T10:18:33.759Z</time>
      </trkpt>
      <trkpt lat="42.62401" lon="1.45511">
        <ele>2024</ele>
        <time>2017-05-20T10:18:40.753Z</time>
      </trkpt>
      <trkpt lat="42.62406" lon="1.455">
        <ele>2011</ele>
        <time>2017-05-20T10:18:51.759Z</time>
      </trkpt>
      <trkpt lat="42.62406" lon="1.45485">
        <ele>2009</ele>
        <time>2017-05-20T10:18:58.761Z</time>
      </trkpt>
      <trkpt lat="42.62411" lon="1.45473">
        <ele>2006</ele>
        <time>2017-05-20T10:19:18.751Z</time>
      </trkpt>
      <trkpt lat="42.62419" lon="1.45465">
        <ele>1998</ele>
        <time>2017-05-20T10:19:28.756Z</time>
      </trkpt>
      <trkpt lat="42.62426" lon="1.45453">
        <ele>1995</ele>
        <time>2017-05-20T10:19:51.755Z</time>
      </trkpt>
      <trkpt lat="42.62436" lon="1.45453">
        <ele>1995</ele>
        <time>2017-05-20T10:20:05.763Z</time>
      </trkpt>
      <trkpt lat="42.62445" lon="1.45445">
        <ele>1993</ele>
        <time>2017-05-20T10:20:15.752Z</time>
      </trkpt>
      <trkpt lat="42.62455" lon="1.45442">
        <ele>1993</ele>
        <time>2017-05-20T10:20:31.759Z</time>
      </trkpt>
      <trkpt lat="42.62459" lon="1.45429">
        <ele>1991</ele>
        <time>2017-05-20T10:20:43.755Z</time>
      </trkpt>
      <trkpt lat="42.62456" lon="1.45415">
        <ele>1968</ele>
        <time>2017-05-20T10:20:52.760Z</time>
      </trkpt>
      <trkpt lat="42.62466" lon="1.45415">
        <ele>1969</ele>
        <time>2017-05-20T10:21:00.764Z</time>
      </trkpt>
      <trkpt lat="42.62473" lon="1.45402">
        <ele>1967</ele>
        <time>2017-05-20T10:21:09.754Z</time>
      </trkpt>
      <trkpt lat="42.62476" lon="1.45392">
        <ele>1966</ele>
        <time>2017-05-20T10:21:16.764Z</time>
      </trkpt>
      <trkpt lat="42.62483" lon="1.45381">
        <ele>1963</ele>
        <time>2017-05-20T10:21:28.756Z</time>
      </trkpt>
      <trkpt lat="42.62488" lon="1.45372">
        <ele>1960</ele>
        <time>2017-05-20T10:21:37.759Z</time>
      </trkpt>
      <trkpt lat="42.62481" lon="1.45357">
        <ele>1956</ele>
        <time>2017-05-20T10:22:05.756Z</time>
      </trkpt>
      <trkpt lat="42.62489" lon="1.45346">
        <ele>1951</ele>
        <time>2017-05-20T10:22:21.756Z</time>
      </trkpt>
      <trkpt lat="42.62499" lon="1.45343">
        <ele>1948</ele>
        <time>2017-05-20T10:22:29.761Z</time>
      </trkpt>
      <trkpt lat="42.62505" lon="1.45328">
        <ele>1936</ele>
        <time>2017-05-20T10:22:49.761Z</time>
      </trkpt>
      <trkpt lat="42.62514" lon="1.45319">
        <ele>1928</ele>
        <time>2017-05-20T10:22:57.761Z</time>
      </trkpt>
      <trkpt lat="42.62524" lon="1.45313">
        <ele>1924</ele>
        <time>2017-05-20T10:23:09.762Z</time>
      </trkpt>
      <trkpt lat="42.62534" lon="1.45315">
        <ele>1923</ele>
        <time>2017-05-20T10:23:17.759Z</time>
      </trkpt>
      <trkpt lat="42.62546" lon="1.45313">
        <ele>1922</ele>
        <time>2017-05-20T10:23:25.760Z</time>
      </trkpt>
      <trkpt lat="42.62557" lon="1.45307">
        <ele>1921</ele>
        <time>2017-05-20T10:23:33.761Z</time>
      </trkpt>
      <trkpt lat="42.62564" lon="1.45297">
        <ele>1918</ele>
        <time>2017-05-20T10:23:49.761Z</time>
      </trkpt>
      <trkpt lat="42.6257" lon="1.45284">
        <ele>1913</ele>
        <time>2017-05-20T10:24:02.760Z</time>
      </trkpt>
      <trkpt lat="42.62581" lon="1.45278">
        <ele>1910</ele>
        <time>2017-05-20T10:24:12.758Z</time>
      </trkpt>
      <trkpt lat="42.6259" lon="1.45271">
        <ele>1907</ele>
        <time>2017-05-20T10:24:23.754Z</time>
      </trkpt>
      <trkpt lat="42.62599" lon="1.45264">
        <ele>1906</ele>
        <time>2017-05-20T10:24:33.761Z</time>
      </trkpt>
      <trkpt lat="42.62608" lon="1.45257">
        <ele>1906</ele>
        <time>2017-05-20T10:24:50.757Z</time>
      </trkpt>
      <trkpt lat="42.62618" lon="1.45253">
        <ele>1908</ele>
        <time>2017-05-20T10:24:57.754Z</time>
      </trkpt>
      <trkpt lat="42.62624" lon="1.45246">
        <ele>1886</ele>
        <time>2017-05-20T10:25:04.757Z</time>
      </trkpt>
      <trkpt lat="42.62634" lon="1.45237">
        <ele>1886</ele>
        <time>2017-05-20T10:25:19.761Z</time>
      </trkpt>
      <trkpt lat="42.62644" lon="1.45236">
        <ele>1887</ele>
        <time>2017-05-20T10:25:24.756Z</time>
      </trkpt>
      <trkpt lat="42.62655" lon="1.45233">
        <ele>1888</ele>
        <time>2017-05-20T10:25:42.757Z</time>
      </trkpt>
      <trkpt lat="42.62665" lon="1.45235">
        <ele>1889</ele>
        <time>2017-05-20T10:25:49.764Z</time>
      </trkpt>
      <trkpt lat="42.62676" lon="1.45232">
        <ele>1890</ele>
        <time>2017-05-20T10:25:56.767Z</time>
      </trkpt>
      <trkpt lat="42.62686" lon="1.45235">
        <ele>1890</ele>
        <time>2017-05-20T10:26:04.758Z</time>
      </trkpt>
      <trkpt lat="42.62698" lon="1.45237">
        <ele>1890</ele>
        <time>2017-05-20T10:26:19.768Z</time>
      </trkpt>
      <trkpt lat="42.62704" lon="1.45228">
        <ele>1889</ele>
        <time>2017-05-20T10:26:29.763Z</time>
      </trkpt>
      <trkpt lat="42.62719" lon="1.45225">
        <ele>1890</ele>
        <time>2017-05-20T10:26:43.760Z</time>
      </trkpt>
      <trkpt lat="42.62728" lon="1.45219">
        <ele>1889</ele>
        <time>2017-05-20T10:26:53.760Z</time>
      </trkpt>
      <trkpt lat="42.62735" lon="1.4521">
        <ele>1887</ele>
        <time>2017-05-20T10:27:02.760Z</time>
      </trkpt>
      <trkpt lat="42.62748" lon="1.45209">
        <ele>1887</ele>
        <time>2017-05-20T10:27:14.760Z</time>
      </trkpt>
      <trkpt lat="42.62758" lon="1.45205">
        <ele>1890</ele>
        <time>2017-05-20T10:27:22.760Z</time>
      </trkpt>
      <trkpt lat="42.62772" lon="1.45195">
        <ele>1888</ele>
        <time>2017-05-20T10:27:33.760Z</time>
      </trkpt>
      <trkpt lat="42.62782" lon="1.4519">
        <ele>1888</ele>
        <time>2017-05-20T10:27:41.760Z</time>
      </trkpt>
      <trkpt lat="42.62793" lon="1.45186">
        <ele>1887</ele>
        <time>2017-05-20T10:27:47.760Z</time>
      </trkpt>
      <trkpt lat="42.62799" lon="1.45175">
        <ele>1886</ele>
        <time>2017-05-20T10:27:56.754Z</time>
      </trkpt>
      <trkpt lat="42.62806" lon="1.45161">
        <ele>1868</ele>
        <time>2017-05-20T10:28:08.760Z</time>
      </trkpt>
      <trkpt lat="42.62819" lon="1.45155">
        <ele>1869</ele>
        <time>2017-05-20T10:28:18.760Z</time>
      </trkpt>
      <trkpt lat="42.62832" lon="1.45156">
        <ele>1870</ele>
        <time>2017-05-20T10:28:26.760Z</time>
      </trkpt>
      <trkpt lat="42.62841" lon="1.45148">
        <ele>1869</ele>
        <time>2017-05-20T10:28:34.760Z</time>
      </trkpt>
      <trkpt lat="42.62832" lon="1.4514">
        <ele>1867</ele>
        <time>2017-05-20T10:28:51.759Z</time>
      </trkpt>
      <trkpt lat="42.62822" lon="1.4514">
        <ele>1867</ele>
        <time>2017-05-20T10:29:08.759Z</time>
      </trkpt>
      <trkpt lat="42.62818" lon="1.45153">
        <ele>1868</ele>
        <time>2017-05-20T10:30:10.755Z</time>
      </trkpt>
      <trkpt lat="42.62826" lon="1.45143">
        <ele>1867</ele>
        <time>2017-05-20T10:30:27.760Z</time>
      </trkpt>
      <trkpt lat="42.62832" lon="1.45131">
        <ele>1865</ele>
        <time>2017-05-20T10:31:14.760Z</time>
      </trkpt>
      <trkpt lat="42.62842" lon="1.45136">
        <ele>1867</ele>
        <time>2017-05-20T10:31:48.766Z</time>
      </trkpt>
      <trkpt lat="42.62853" lon="1.45131">
        <ele>1866</ele>
        <time>2017-05-20T10:31:54.762Z</time>
      </trkpt>
      <trkpt lat="42.62865" lon="1.45135">
        <ele>1867</ele>
        <time>2017-05-20T10:32:08.760Z</time>
      </trkpt>
      <trkpt lat="42.62875" lon="1.45131">
        <ele>1866</ele>
        <time>2017-05-20T10:32:14.760Z</time>
      </trkpt>
      <trkpt lat="42.62893" lon="1.45134">
        <ele>1868</ele>
        <time>2017-05-20T10:32:27.760Z</time>
      </trkpt>
      <trkpt lat="42.62905" lon="1.45133">
        <ele>1868</ele>
        <time>2017-05-20T10:32:33.760Z</time>
      </trkpt>
      <trkpt lat="42.62924" lon="1.45135">
        <ele>1875</ele>
        <time>2017-05-20T10:32:49.760Z</time>
      </trkpt>
      <trkpt lat="42.62941" lon="1.45136">
        <ele>1876</ele>
        <time>2017-05-20T10:33:01.760Z</time>
      </trkpt>
      <trkpt lat="42.62952" lon="1.45138">
        <ele>1877</ele>
        <time>2017-05-20T10:33:08.760Z</time>
      </trkpt>
      <trkpt lat="42.62963" lon="1.45137">
        <ele>1878</ele>
        <time>2017-05-20T10:33:15.760Z</time>
      </trkpt>
      <trkpt lat="42.62966" lon="1.45123">
        <ele>1875</ele>
        <time>2017-05-20T10:33:21.760Z</time>
      </trkpt>
      <trkpt lat="42.62974" lon="1.45112">
        <ele>1874</ele>
        <time>2017-05-20T10:33:30.760Z</time>
      </trkpt>
      <trkpt lat="42.62985" lon="1.45096">
        <ele>1871</ele>
        <time>2017-05-20T10:33:38.760Z</time>
      </trkpt>
      <trkpt lat="42.62991" lon="1.45082">
        <ele>1862</ele>
        <time>2017-05-20T10:33:48.760Z</time>
      </trkpt>
      <trkpt lat="42.62999" lon="1.45074">
        <ele>1862</ele>
        <time>2017-05-20T10:33:56.762Z</time>
      </trkpt>
      <trkpt lat="42.63005" lon="1.45061">
        <ele>1860</ele>
        <time>2017-05-20T10:34:02.760Z</time>
      </trkpt>
      <trkpt lat="42.63014" lon="1.45053">
        <ele>1859</ele>
        <time>2017-05-20T10:34:14.758Z</time>
      </trkpt>
      <trkpt lat="42.63026" lon="1.45047">
        <ele>1858</ele>
        <time>2017-05-20T10:34:20.756Z</time>
      </trkpt>
      <trkpt lat="42.63034" lon="1.45055">
        <ele>1859</ele>
        <time>2017-05-20T10:34:28.756Z</time>
      </trkpt>
      <trkpt lat="42.63043" lon="1.45062">
        <ele>1859</ele>
        <time>2017-05-20T10:34:37.760Z</time>
      </trkpt>
      <trkpt lat="42.6305" lon="1.4507">
        <ele>1860</ele>
        <time>2017-05-20T10:34:44.760Z</time>
      </trkpt>
      <trkpt lat="42.6306" lon="1.45074">
        <ele>1861</ele>
        <time>2017-05-20T10:34:52.763Z</time>
      </trkpt>
      <trkpt lat="42.63067" lon="1.45084">
        <ele>1874</ele>
        <time>2017-05-20T10:35:00.760Z</time>
      </trkpt>
      <trkpt lat="42.63073" lon="1.45096">
        <ele>1874</ele>
        <time>2017-05-20T10:35:08.760Z</time>
      </trkpt>
      <trkpt lat="42.63084" lon="1.45104">
        <ele>1875</ele>
        <time>2017-05-20T10:35:16.761Z</time>
      </trkpt>
      <trkpt lat="42.63093" lon="1.45118">
        <ele>1879</ele>
        <time>2017-05-20T10:35:23.760Z</time>
      </trkpt>
      <trkpt lat="42.63103" lon="1.45123">
        <ele>1881</ele>
        <time>2017-05-20T10:35:31.757Z</time>
      </trkpt>
      <trkpt lat="42.63113" lon="1.45126">
        <ele>1881</ele>
        <time>2017-05-20T10:35:36.760Z</time>
      </trkpt>
      <trkpt lat="42.63122" lon="1.45129">
        <ele>1882</ele>
        <time>2017-05-20T10:35:42.561Z</time>
      </trkpt>
      <trkpt lat="42.63129" lon="1.45132">
        <ele>1882</ele>
        <time>2017-05-20T10:35:48.760Z</time>
      </trkpt>
      <trkpt lat="42.63137" lon="1.45131">
        <ele>1882</ele>
        <time>2017-05-20T10:35:56.570Z</time>
      </trkpt>
      <trkpt lat="42.63147" lon="1.45126">
        <ele>1881</ele>
        <time>2017-05-20T10:36:02.763Z</time>
      </trkpt>
      <trkpt lat="42.63156" lon="1.4512">
        <ele>1879</ele>
        <time>2017-05-20T10:36:10.764Z</time>
      </trkpt>
      <trkpt lat="42.63165" lon="1.45115">
        <ele>1877</ele>
        <time>2017-05-20T10:36:17.762Z</time>
      </trkpt>
      <trkpt lat="42.63175" lon="1.4511">
        <ele>1871</ele>
        <time>2017-05-20T10:36:27.760Z</time>
      </trkpt>
      <trkpt lat="42.63187" lon="1.45116">
        <ele>1872</ele>
        <time>2017-05-20T10:36:35.760Z</time>
      </trkpt>
      <trkpt lat="42.63196" lon="1.45124">
        <ele>1874</ele>
        <time>2017-05-20T10:36:43.760Z</time>
      </trkpt>
      <trkpt lat="42.63207" lon="1.45132">
        <ele>1875</ele>
        <time>2017-05-20T10:36:50.760Z</time>
      </trkpt>
      <trkpt lat="42.63217" lon="1.45138">
        <ele>1875</ele>
        <time>2017-05-20T10:36:56.760Z</time>
      </trkpt>
      <trkpt lat="42.63231" lon="1.45143">
        <ele>1875</ele>
        <time>2017-05-20T10:37:03.760Z</time>
      </trkpt>
      <trkpt lat="42.63251" lon="1.45149">
        <ele>1872</ele>
        <time>2017-05-20T10:37:14.760Z</time>
      </trkpt>
      <trkpt lat="42.63264" lon="1.45151">
        <ele>1871</ele>
        <time>2017-05-20T10:37:27.760Z</time>
      </trkpt>
      <trkpt lat="42.63275" lon="1.45149">
        <ele>1868</ele>
        <time>2017-05-20T10:37:34.760Z</time>
      </trkpt>
      <trkpt lat="42.63286" lon="1.45147">
        <ele>1866</ele>
        <time>2017-05-20T10:37:41.760Z</time>
      </trkpt>
      <trkpt lat="42.63298" lon="1.45145">
        <ele>1865</ele>
        <time>2017-05-20T10:37:48.759Z</time>
      </trkpt>
      <trkpt lat="42.63309" lon="1.45141">
        <ele>1865</ele>
        <time>2017-05-20T10:37:53.756Z</time>
      </trkpt>
      <trkpt lat="42.63321" lon="1.45144">
        <ele>1866</ele>
        <time>2017-05-20T10:38:03.761Z</time>
      </trkpt>
      <trkpt lat="42.63332" lon="1.45144">
        <ele>1866</ele>
        <time>2017-05-20T10:38:12.759Z</time>
      </trkpt>
      <trkpt lat="42.63344" lon="1.45144">
        <ele>1864</ele>
        <time>2017-05-20T10:38:21.760Z</time>
      </trkpt>
      <trkpt lat="42.63362" lon="1.45143">
        <ele>1863</ele>
        <time>2017-05-20T10:38:34.760Z</time>
      </trkpt>
      <trkpt lat="42.63375" lon="1.45146">
        <ele>1863</ele>
        <time>2017-05-20T10:38:43.760Z</time>
      </trkpt>
      <trkpt lat="42.63403" lon="1.45143">
        <ele>1865</ele>
        <time>2017-05-20T10:39:00.760Z</time>
      </trkpt>
      <trkpt lat="42.63415" lon="1.45139">
        <ele>1864</ele>
        <time>2017-05-20T10:39:08.760Z</time>
      </trkpt>
      <trkpt lat="42.63426" lon="1.45136">
        <ele>1866</ele>
        <time>2017-05-20T10:39:14.754Z</time>
      </trkpt>
      <trkpt lat="42.63437" lon="1.45129">
        <ele>1864</ele>
        <time>2017-05-20T10:39:20.751Z</time>
      </trkpt>
      <trkpt lat="42.63458" lon="1.45123">
        <ele>1863</ele>
        <time>2017-05-20T10:39:35.760Z</time>
      </trkpt>
      <trkpt lat="42.63468" lon="1.45122">
        <ele>1863</ele>
        <time>2017-05-20T10:39:41.761Z</time>
      </trkpt>
      <trkpt lat="42.63478" lon="1.45119">
        <ele>1862</ele>
        <time>2017-05-20T10:39:49.758Z</time>
      </trkpt>
      <trkpt lat="42.6349" lon="1.45119">
        <ele>1863</ele>
        <time>2017-05-20T10:39:57.764Z</time>
      </trkpt>
      <trkpt lat="42.63501" lon="1.45118">
        <ele>1862</ele>
        <time>2017-05-20T10:40:07.760Z</time>
      </trkpt>
      <trkpt lat="42.63517" lon="1.45117">
        <ele>1861</ele>
        <time>2017-05-20T10:40:18.760Z</time>
      </trkpt>
      <trkpt lat="42.63526" lon="1.4511">
        <ele>1860</ele>
        <time>2017-05-20T10:40:26.867Z</time>
      </trkpt>
      <trkpt lat="42.63536" lon="1.45115">
        <ele>1861</ele>
        <time>2017-05-20T10:40:33.760Z</time>
      </trkpt>
      <trkpt lat="42.63546" lon="1.45115">
        <ele>1860</ele>
        <time>2017-05-20T10:40:40.758Z</time>
      </trkpt>
      <trkpt lat="42.63558" lon="1.4512">
        <ele>1861</ele>
        <time>2017-05-20T10:40:45.760Z</time>
      </trkpt>
      <trkpt lat="42.6357" lon="1.45126">
        <ele>1862</ele>
        <time>2017-05-20T10:40:53.760Z</time>
      </trkpt>
      <trkpt lat="42.6358" lon="1.45126">
        <ele>1862</ele>
        <time>2017-05-20T10:41:01.760Z</time>
      </trkpt>
      <trkpt lat="42.6359" lon="1.45127">
        <ele>1859</ele>
        <time>2017-05-20T10:41:09.757Z</time>
      </trkpt>
      <trkpt lat="42.636" lon="1.45129">
        <ele>1859</ele>
        <time>2017-05-20T10:41:19.761Z</time>
      </trkpt>
      <trkpt lat="42.63611" lon="1.45129">
        <ele>1859</ele>
        <time>2017-05-20T10:41:26.760Z</time>
      </trkpt>
      <trkpt lat="42.63622" lon="1.4513">
        <ele>1859</ele>
        <time>2017-05-20T10:41:33.764Z</time>
      </trkpt>
      <trkpt lat="42.63633" lon="1.45128">
        <ele>1858</ele>
        <time>2017-05-20T10:41:39.764Z</time>
      </trkpt>
      <trkpt lat="42.63643" lon="1.45126">
        <ele>1857</ele>
        <time>2017-05-20T10:41:45.757Z</time>
      </trkpt>
      <trkpt lat="42.63666" lon="1.45122">
        <ele>1856</ele>
        <time>2017-05-20T10:41:56.760Z</time>
      </trkpt>
      <trkpt lat="42.63676" lon="1.45122">
        <ele>1853</ele>
        <time>2017-05-20T10:42:03.761Z</time>
      </trkpt>
      <trkpt lat="42.63686" lon="1.45122">
        <ele>1852</ele>
        <time>2017-05-20T10:42:12.762Z</time>
      </trkpt>
      <trkpt lat="42.63702" lon="1.4512">
        <ele>1851</ele>
        <time>2017-05-20T10:42:22.760Z</time>
      </trkpt>
      <trkpt lat="42.63713" lon="1.45123">
        <ele>1851</ele>
        <time>2017-05-20T10:42:32.762Z</time>
      </trkpt>
      <trkpt lat="42.63728" lon="1.45121">
        <ele>1850</ele>
        <time>2017-05-20T10:42:41.760Z</time>
      </trkpt>
      <trkpt lat="42.6374" lon="1.45127">
        <ele>1851</ele>
        <time>2017-05-20T10:42:48.756Z</time>
      </trkpt>
      <trkpt lat="42.6375" lon="1.45123">
        <ele>1850</ele>
        <time>2017-05-20T10:42:56.760Z</time>
      </trkpt>
      <trkpt lat="42.6376" lon="1.45118">
        <ele>1844</ele>
        <time>2017-05-20T10:43:04.760Z</time>
      </trkpt>
      <trkpt lat="42.6377" lon="1.45115">
        <ele>1843</ele>
        <time>2017-05-20T10:43:10.760Z</time>
      </trkpt>
      <trkpt lat="42.6378" lon="1.45112">
        <ele>1843</ele>
        <time>2017-05-20T10:43:17.760Z</time>
      </trkpt>
      <trkpt lat="42.6379" lon="1.45111">
        <ele>1842</ele>
        <time>2017-05-20T10:43:24.760Z</time>
      </trkpt>
      <trkpt lat="42.63801" lon="1.45115">
        <ele>1842</ele>
        <time>2017-05-20T10:43:32.760Z</time>
      </trkpt>
      <trkpt lat="42.63811" lon="1.4512">
        <ele>1843</ele>
        <time>2017-05-20T10:43:38.760Z</time>
      </trkpt>
      <trkpt lat="42.63821" lon="1.45124">
        <ele>1843</ele>
        <time>2017-05-20T10:43:45.760Z</time>
      </trkpt>
      <trkpt lat="42.6383" lon="1.45129">
        <ele>1844</ele>
        <time>2017-05-20T10:43:52.760Z</time>
      </trkpt>
      <trkpt lat="42.63841" lon="1.45134">
        <ele>1843</ele>
        <time>2017-05-20T10:43:59.760Z</time>
      </trkpt>
      <trkpt lat="42.63848" lon="1.45143">
        <ele>1845</ele>
        <time>2017-05-20T10:44:08.760Z</time>
      </trkpt>
      <trkpt lat="42.6386" lon="1.45146">
        <ele>1845</ele>
        <time>2017-05-20T10:44:15.760Z</time>
      </trkpt>
      <trkpt lat="42.6387" lon="1.45145">
        <ele>1845</ele>
        <time>2017-05-20T10:44:21.760Z</time>
      </trkpt>
      <trkpt lat="42.63879" lon="1.45139">
        <ele>1844</ele>
        <time>2017-05-20T10:44:27.760Z</time>
      </trkpt>
      <trkpt lat="42.63889" lon="1.45136">
        <ele>1844</ele>
        <time>2017-05-20T10:44:34.760Z</time>
      </trkpt>
      <trkpt lat="42.63904" lon="1.45124">
        <ele>1842</ele>
        <time>2017-05-20T10:44:45.760Z</time>
      </trkpt>
      <trkpt lat="42.63914" lon="1.45118">
        <ele>1840</ele>
        <time>2017-05-20T10:44:54.760Z</time>
      </trkpt>
      <trkpt lat="42.63927" lon="1.45116">
        <ele>1841</ele>
        <time>2017-05-20T10:45:03.760Z</time>
      </trkpt>
      <trkpt lat="42.63938" lon="1.45114">
        <ele>1840</ele>
        <time>2017-05-20T10:45:09.760Z</time>
      </trkpt>
      <trkpt lat="42.63953" lon="1.45117">
        <ele>1842</ele>
        <time>2017-05-20T10:45:23.760Z</time>
      </trkpt>
      <trkpt lat="42.63964" lon="1.45117">
        <ele>1842</ele>
        <time>2017-05-20T10:45:29.760Z</time>
      </trkpt>
      <trkpt lat="42.6398" lon="1.45118">
        <ele>1842</ele>
        <time>2017-05-20T10:45:39.760Z</time>
      </trkpt>
      <trkpt lat="42.64" lon="1.45105">
        <ele>1838</ele>
        <time>2017-05-20T10:45:52.760Z</time>
      </trkpt>
      <trkpt lat="42.64013" lon="1.45106">
        <ele>1839</ele>
        <time>2017-05-20T10:46:00.760Z</time>
      </trkpt>
      <trkpt lat="42.64027" lon="1.45102">
        <ele>1840</ele>
        <time>2017-05-20T10:46:07.760Z</time>
      </trkpt>
      <trkpt lat="42.64037" lon="1.45095">
        <ele>1839</ele>
        <time>2017-05-20T10:46:14.760Z</time>
      </trkpt>
      <trkpt lat="42.64046" lon="1.45101">
        <ele>1840</ele>
        <time>2017-05-20T10:46:24.765Z</time>
      </trkpt>
      <trkpt lat="42.64056" lon="1.45107">
        <ele>1840</ele>
        <time>2017-05-20T10:46:30.760Z</time>
      </trkpt>
      <trkpt lat="42.64066" lon="1.45111">
        <ele>1841</ele>
        <time>2017-05-20T10:46:36.760Z</time>
      </trkpt>
      <trkpt lat="42.64077" lon="1.45112">
        <ele>1840</ele>
        <time>2017-05-20T10:46:45.760Z</time>
      </trkpt>
      <trkpt lat="42.64087" lon="1.45118">
        <ele>1842</ele>
        <time>2017-05-20T10:46:52.760Z</time>
      </trkpt>
      <trkpt lat="42.64096" lon="1.45127">
        <ele>1844</ele>
        <time>2017-05-20T10:47:00.754Z</time>
      </trkpt>
      <trkpt lat="42.64115" lon="1.45119">
        <ele>1842</ele>
        <time>2017-05-20T10:47:09.760Z</time>
      </trkpt>
      <trkpt lat="42.64131" lon="1.45114">
        <ele>1841</ele>
        <time>2017-05-20T10:47:21.760Z</time>
      </trkpt>
      <trkpt lat="42.64136" lon="1.45101">
        <ele>1838</ele>
        <time>2017-05-20T10:47:27.760Z</time>
      </trkpt>
      <trkpt lat="42.64145" lon="1.45095">
        <ele>1836</ele>
        <time>2017-05-20T10:47:35.760Z</time>
      </trkpt>
      <trkpt lat="42.64159" lon="1.45099">
        <ele>1834</ele>
        <time>2017-05-20T10:47:43.760Z</time>
      </trkpt>
      <trkpt lat="42.64175" lon="1.45104">
        <ele>1837</ele>
        <time>2017-05-20T10:47:55.760Z</time>
      </trkpt>
      <trkpt lat="42.64186" lon="1.45104">
        <ele>1839</ele>
        <time>2017-05-20T10:48:03.760Z</time>
      </trkpt>
      <trkpt lat="42.64195" lon="1.45095">
        <ele>1839</ele>
        <time>2017-05-20T10:48:08.760Z</time>
      </trkpt>
      <trkpt lat="42.64201" lon="1.45084">
        <ele>1838</ele>
        <time>2017-05-20T10:48:13.760Z</time>
      </trkpt>
      <trkpt lat="42.64212" lon="1.4508">
        <ele>1823</ele>
        <time>2017-05-20T10:48:21.760Z</time>
      </trkpt>
      <trkpt lat="42.64221" lon="1.45078">
        <ele>1824</ele>
        <time>2017-05-20T10:48:27.760Z</time>
      </trkpt>
      <trkpt lat="42.64234" lon="1.45069">
        <ele>1825</ele>
        <time>2017-05-20T10:48:37.760Z</time>
      </trkpt>
      <trkpt lat="42.64247" lon="1.45056">
        <ele>1824</ele>
        <time>2017-05-20T10:48:50.760Z</time>
      </trkpt>
      <trkpt lat="42.64288" lon="1.45034">
        <ele>1828</ele>
        <time>2017-05-20T10:49:29.760Z</time>
      </trkpt>
      <trkpt lat="42.64299" lon="1.45033">
        <ele>1829</ele>
        <time>2017-05-20T10:49:41.760Z</time>
      </trkpt>
      <trkpt lat="42.6431" lon="1.45031">
        <ele>1829</ele>
        <time>2017-05-20T10:49:48.760Z</time>
      </trkpt>
      <trkpt lat="42.6432" lon="1.4503">
        <ele>1829</ele>
        <time>2017-05-20T10:49:55.760Z</time>
      </trkpt>
      <trkpt lat="42.64331" lon="1.4503">
        <ele>1829</ele>
        <time>2017-05-20T10:50:03.760Z</time>
      </trkpt>
      <trkpt lat="42.64341" lon="1.45034">
        <ele>1839</ele>
        <time>2017-05-20T10:50:09.760Z</time>
      </trkpt>
      <trkpt lat="42.64361" lon="1.45042">
        <ele>1843</ele>
        <time>2017-05-20T10:50:24.760Z</time>
      </trkpt>
      <trkpt lat="42.64396" lon="1.44991">
        <ele>1822</ele>
        <time>2017-05-20T10:50:54.760Z</time>
      </trkpt>
      <trkpt lat="42.64405" lon="1.44984">
        <ele>1823</ele>
        <time>2017-05-20T10:51:01.760Z</time>
      </trkpt>
      <trkpt lat="42.64414" lon="1.44976">
        <ele>1822</ele>
        <time>2017-05-20T10:51:08.760Z</time>
      </trkpt>
      <trkpt lat="42.64422" lon="1.44971">
        <ele>1823</ele>
        <time>2017-05-20T10:51:13.760Z</time>
      </trkpt>
      <trkpt lat="42.6443" lon="1.44978">
        <ele>1824</ele>
        <time>2017-05-20T10:51:20.760Z</time>
      </trkpt>
      <trkpt lat="42.64438" lon="1.44973">
        <ele>1823</ele>
        <time>2017-05-20T10:51:27.760Z</time>
      </trkpt>
      <trkpt lat="42.64448" lon="1.44975">
        <ele>1823</ele>
        <time>2017-05-20T10:51:34.760Z</time>
      </trkpt>
      <trkpt lat="42.64463" lon="1.44981">
        <ele>1824</ele>
        <time>2017-05-20T10:51:43.760Z</time>
      </trkpt>
      <trkpt lat="42.64487" lon="1.44971">
        <ele>1824</ele>
        <time>2017-05-20T10:51:52.756Z</time>
      </trkpt>
      <trkpt lat="42.64496" lon="1.44965">
        <ele>1823</ele>
        <time>2017-05-20T10:51:58.760Z</time>
      </trkpt>
      <trkpt lat="42.64502" lon="1.44977">
        <ele>1822</ele>
        <time>2017-05-20T10:52:09.765Z</time>
      </trkpt>
      <trkpt lat="42.64518" lon="1.44964">
        <ele>1817</ele>
        <time>2017-05-20T10:52:17.760Z</time>
      </trkpt>
      <trkpt lat="42.6453" lon="1.44956">
        <ele>1815</ele>
        <time>2017-05-20T10:52:26.760Z</time>
      </trkpt>
      <trkpt lat="42.64546" lon="1.44967">
        <ele>1815</ele>
        <time>2017-05-20T10:52:38.762Z</time>
      </trkpt>
      <trkpt lat="42.64557" lon="1.44973">
        <ele>1816</ele>
        <time>2017-05-20T10:52:47.767Z</time>
      </trkpt>
      <trkpt lat="42.64567" lon="1.44976">
        <ele>1816</ele>
        <time>2017-05-20T10:52:54.755Z</time>
      </trkpt>
      <trkpt lat="42.64577" lon="1.44981">
        <ele>1818</ele>
        <time>2017-05-20T10:53:00.759Z</time>
      </trkpt>
      <trkpt lat="42.64599" lon="1.4497">
        <ele>1803</ele>
        <time>2017-05-20T10:53:11.760Z</time>
      </trkpt>
      <trkpt lat="42.6461" lon="1.4497">
        <ele>1801</ele>
        <time>2017-05-20T10:53:20.568Z</time>
      </trkpt>
      <trkpt lat="42.64619" lon="1.44962">
        <ele>1798</ele>
        <time>2017-05-20T10:53:27.760Z</time>
      </trkpt>
      <trkpt lat="42.64631" lon="1.44959">
        <ele>1796</ele>
        <time>2017-05-20T10:53:32.760Z</time>
      </trkpt>
      <trkpt lat="42.64639" lon="1.44967">
        <ele>1797</ele>
        <time>2017-05-20T10:53:39.759Z</time>
      </trkpt>
      <trkpt lat="42.64649" lon="1.44966">
        <ele>1796</ele>
        <time>2017-05-20T10:53:47.869Z</time>
      </trkpt>
      <trkpt lat="42.6466" lon="1.44969">
        <ele>1796</ele>
        <time>2017-05-20T10:53:53.767Z</time>
      </trkpt>
      <trkpt lat="42.6467" lon="1.44975">
        <ele>1785</ele>
        <time>2017-05-20T10:54:00.764Z</time>
      </trkpt>
      <trkpt lat="42.64678" lon="1.44984">
        <ele>1787</ele>
        <time>2017-05-20T10:54:06.762Z</time>
      </trkpt>
      <trkpt lat="42.64686" lon="1.44992">
        <ele>1786</ele>
        <time>2017-05-20T10:54:14.760Z</time>
      </trkpt>
      <trkpt lat="42.6469" lon="1.45005">
        <ele>1801</ele>
        <time>2017-05-20T10:54:21.760Z</time>
      </trkpt>
      <trkpt lat="42.64701" lon="1.45001">
        <ele>1799</ele>
        <time>2017-05-20T10:54:29.759Z</time>
      </trkpt>
      <trkpt lat="42.64711" lon="1.45012">
        <ele>1798</ele>
        <time>2017-05-20T10:54:35.760Z</time>
      </trkpt>
      <trkpt lat="42.64722" lon="1.4501">
        <ele>1794</ele>
        <time>2017-05-20T10:54:43.760Z</time>
      </trkpt>
      <trkpt lat="42.64732" lon="1.45013">
        <ele>1790</ele>
        <time>2017-05-20T10:54:49.760Z</time>
      </trkpt>
      <trkpt lat="42.6473" lon="1.44991">
        <ele>1774</ele>
        <time>2017-05-20T10:54:59.763Z</time>
      </trkpt>
      <trkpt lat="42.64721" lon="1.44985">
        <ele>1775</ele>
        <time>2017-05-20T10:55:06.759Z</time>
      </trkpt>
      <trkpt lat="42.64715" lon="1.44975">
        <ele>1776</ele>
        <time>2017-05-20T10:55:12.760Z</time>
      </trkpt>
      <trkpt lat="42.64707" lon="1.44965">
        <ele>1776</ele>
        <time>2017-05-20T10:55:19.760Z</time>
      </trkpt>
      <trkpt lat="42.647" lon="1.44953">
        <ele>1776</ele>
        <time>2017-05-20T10:55:24.756Z</time>
      </trkpt>
      <trkpt lat="42.64686" lon="1.44929">
        <ele>1774</ele>
        <time>2017-05-20T10:55:37.761Z</time>
      </trkpt>
      <trkpt lat="42.64674" lon="1.44925">
        <ele>1774</ele>
        <time>2017-05-20T10:55:49.760Z</time>
      </trkpt>
      <trkpt lat="42.64684" lon="1.44922">
        <ele>1774</ele>
        <time>2017-05-20T10:55:59.758Z</time>
      </trkpt>
      <trkpt lat="42.64696" lon="1.44928">
        <ele>1774</ele>
        <time>2017-05-20T10:56:06.763Z</time>
      </trkpt>
      <trkpt lat="42.64705" lon="1.44934">
        <ele>1773</ele>
        <time>2017-05-20T10:56:11.760Z</time>
      </trkpt>
      <trkpt lat="42.64712" lon="1.44948">
        <ele>1774</ele>
        <time>2017-05-20T10:56:18.754Z</time>
      </trkpt>
      <trkpt lat="42.64719" lon="1.44961">
        <ele>1774</ele>
        <time>2017-05-20T10:56:24.759Z</time>
      </trkpt>
      <trkpt lat="42.64726" lon="1.44971">
        <ele>1774</ele>
        <time>2017-05-20T10:56:29.755Z</time>
      </trkpt>
      <trkpt lat="42.64736" lon="1.44978">
        <ele>1773</ele>
        <time>2017-05-20T10:56:35.752Z</time>
      </trkpt>
      <trkpt lat="42.64754" lon="1.44988">
        <ele>1764</ele>
        <time>2017-05-20T10:56:47.760Z</time>
      </trkpt>
      <trkpt lat="42.64769" lon="1.44999">
        <ele>1762</ele>
        <time>2017-05-20T10:57:03.759Z</time>
      </trkpt>
      <trkpt lat="42.64767" lon="1.45012">
        <ele>1771</ele>
        <time>2017-05-20T10:57:09.756Z</time>
      </trkpt>
      <trkpt lat="42.64777" lon="1.45009">
        <ele>1770</ele>
        <time>2017-05-20T10:57:15.763Z</time>
      </trkpt>
      <trkpt lat="42.6478" lon="1.45024">
        <ele>1771</ele>
        <time>2017-05-20T10:57:20.761Z</time>
      </trkpt>
      <trkpt lat="42.64782" lon="1.45038">
        <ele>1774</ele>
        <time>2017-05-20T10:57:31.754Z</time>
      </trkpt>
      <trkpt lat="42.64797" lon="1.45041">
        <ele>1772</ele>
        <time>2017-05-20T10:57:37.760Z</time>
      </trkpt>
      <trkpt lat="42.64807" lon="1.45043">
        <ele>1770</ele>
        <time>2017-05-20T10:57:43.766Z</time>
      </trkpt>
      <trkpt lat="42.64818" lon="1.45047">
        <ele>1770</ele>
        <time>2017-05-20T10:57:49.755Z</time>
      </trkpt>
      <trkpt lat="42.6484" lon="1.45057">
        <ele>1755</ele>
        <time>2017-05-20T10:58:03.754Z</time>
      </trkpt>
      <trkpt lat="42.64851" lon="1.45059">
        <ele>1754</ele>
        <time>2017-05-20T10:58:10.760Z</time>
      </trkpt>
      <trkpt lat="42.6485" lon="1.45045">
        <ele>1752</ele>
        <time>2017-05-20T10:58:18.759Z</time>
      </trkpt>
      <trkpt lat="42.64842" lon="1.45035">
        <ele>1750</ele>
        <time>2017-05-20T10:58:27.450Z</time>
      </trkpt>
      <trkpt lat="42.64824" lon="1.45023">
        <ele>1763</ele>
        <time>2017-05-20T10:58:34.867Z</time>
      </trkpt>
      <trkpt lat="42.64815" lon="1.45005">
        <ele>1760</ele>
        <time>2017-05-20T10:58:45.760Z</time>
      </trkpt>
      <trkpt lat="42.64801" lon="1.44991">
        <ele>1756</ele>
        <time>2017-05-20T10:58:58.753Z</time>
      </trkpt>
      <trkpt lat="42.64798" lon="1.44975">
        <ele>1756</ele>
        <time>2017-05-20T10:59:06.760Z</time>
      </trkpt>
      <trkpt lat="42.64804" lon="1.44989">
        <ele>1755</ele>
        <time>2017-05-20T10:59:12.763Z</time>
      </trkpt>
      <trkpt lat="42.64814" lon="1.44995">
        <ele>1753</ele>
        <time>2017-05-20T10:59:17.751Z</time>
      </trkpt>
      <trkpt lat="42.64814" lon="1.45009">
        <ele>1761</ele>
        <time>2017-05-20T10:59:22.763Z</time>
      </trkpt>
      <trkpt lat="42.64824" lon="1.45013">
        <ele>1758</ele>
        <time>2017-05-20T10:59:27.757Z</time>
      </trkpt>
      <trkpt lat="42.64826" lon="1.45027">
        <ele>1764</ele>
        <time>2017-05-20T10:59:32.765Z</time>
      </trkpt>
      <trkpt lat="42.64834" lon="1.45037">
        <ele>1751</ele>
        <time>2017-05-20T10:59:41.758Z</time>
      </trkpt>
      <trkpt lat="42.64844" lon="1.45043">
        <ele>1752</ele>
        <time>2017-05-20T10:59:47.759Z</time>
      </trkpt>
      <trkpt lat="42.64856" lon="1.4504">
        <ele>1750</ele>
        <time>2017-05-20T10:59:56.757Z</time>
      </trkpt>
      <trkpt lat="42.64868" lon="1.45042">
        <ele>1749</ele>
        <time>2017-05-20T11:00:02.762Z</time>
      </trkpt>
      <trkpt lat="42.6489" lon="1.45038">
        <ele>1747</ele>
        <time>2017-05-20T11:00:12.762Z</time>
      </trkpt>
      <trkpt lat="42.64906" lon="1.45035">
        <ele>1745</ele>
        <time>2017-05-20T11:00:20.760Z</time>
      </trkpt>
      <trkpt lat="42.64918" lon="1.45034">
        <ele>1732</ele>
        <time>2017-05-20T11:00:30.763Z</time>
      </trkpt>
      <trkpt lat="42.64927" lon="1.45043">
        <ele>1732</ele>
        <time>2017-05-20T11:00:36.753Z</time>
      </trkpt>
      <trkpt lat="42.64936" lon="1.45051">
        <ele>1732</ele>
        <time>2017-05-20T11:00:44.767Z</time>
      </trkpt>
      <trkpt lat="42.64939" lon="1.4507">
        <ele>1733</ele>
        <time>2017-05-20T11:00:53.760Z</time>
      </trkpt>
      <trkpt lat="42.64933" lon="1.45084">
        <ele>1743</ele>
        <time>2017-05-20T11:00:59.766Z</time>
      </trkpt>
      <trkpt lat="42.64944" lon="1.45083">
        <ele>1733</ele>
        <time>2017-05-20T11:01:05.756Z</time>
      </trkpt>
      <trkpt lat="42.64959" lon="1.45105">
        <ele>1741</ele>
        <time>2017-05-20T11:01:16.760Z</time>
      </trkpt>
      <trkpt lat="42.64964" lon="1.45118">
        <ele>1741</ele>
        <time>2017-05-20T11:01:24.759Z</time>
      </trkpt>
      <trkpt lat="42.64971" lon="1.45131">
        <ele>1742</ele>
        <time>2017-05-20T11:01:30.760Z</time>
      </trkpt>
      <trkpt lat="42.64972" lon="1.45147">
        <ele>1744</ele>
        <time>2017-05-20T11:01:36.765Z</time>
      </trkpt>
      <trkpt lat="42.64998" lon="1.45156">
        <ele>1741</ele>
        <time>2017-05-20T11:01:50.760Z</time>
      </trkpt>
      <trkpt lat="42.65014" lon="1.45146">
        <ele>1727</ele>
        <time>2017-05-20T11:01:59.760Z</time>
      </trkpt>
      <trkpt lat="42.65023" lon="1.45142">
        <ele>1725</ele>
        <time>2017-05-20T11:02:06.757Z</time>
      </trkpt>
      <trkpt lat="42.65033" lon="1.45149">
        <ele>1724</ele>
        <time>2017-05-20T11:02:13.759Z</time>
      </trkpt>
      <trkpt lat="42.65054" lon="1.45158">
        <ele>1722</ele>
        <time>2017-05-20T11:02:26.764Z</time>
      </trkpt>
      <trkpt lat="42.65067" lon="1.4516">
        <ele>1722</ele>
        <time>2017-05-20T11:02:37.760Z</time>
      </trkpt>
      <trkpt lat="42.65078" lon="1.4516">
        <ele>1722</ele>
        <time>2017-05-20T11:02:43.760Z</time>
      </trkpt>
      <trkpt lat="42.65095" lon="1.4514">
        <ele>1710</ele>
        <time>2017-05-20T11:02:54.760Z</time>
      </trkpt>
    </trkseg>
  </trk>
</gpx>